<?xml version="1.0" encoding="UTF-8" standalone="no" ?>
<gpx xmlns="http://www.topografix.com/GPX/1/1" xmlns:xsi="http://www.w3.org/2001/XMLSchema-instance" xsi:schemaLocation="http://www.topografix.com/GPX/1/1 http://www.topografix.com/GPX/1/1/gpx.xsd" version="1.1" creator="VisuGPX - https://www.visugpx.com">
  <metadata>
    <name>83 - M - VILLECROZE</name>
    <desc><![CDATA[Piste de Babadié - Hameau de Cagnosc]]></desc>
  </metadata>
  <wpt lat="43.54609" lon="6.29497">
    <ele>448</ele>
    <name><![CDATA[Point de passage 1]]></name>
    <type><![CDATA[GENERIC]]></type>
  </wpt>
  <wpt lat="43.54636" lon="6.29485">
    <ele>438</ele>
    <name><![CDATA[Point de passage 2]]></name>
    <type><![CDATA[GENERIC]]></type>
  </wpt>
  <trk>
    <name><![CDATA[Villecroze mercredi]]></name>
    <trkseg>
      <trkpt lat="43.54609" lon="6.29497">
        <ele>448</ele>
        <time>2026-01-07T12:54:30.000Z</time>
      </trkpt>
      <trkpt lat="43.54612" lon="6.29498">
        <ele>445</ele>
        <time>2026-01-07T12:54:33.000Z</time>
      </trkpt>
      <trkpt lat="43.5462" lon="6.295">
        <ele>443</ele>
        <time>2026-01-07T12:57:06.000Z</time>
      </trkpt>
      <trkpt lat="43.54624" lon="6.29513">
        <ele>443</ele>
        <time>2026-01-07T12:57:18.000Z</time>
      </trkpt>
      <trkpt lat="43.54624" lon="6.29528">
        <ele>444</ele>
        <time>2026-01-07T12:57:30.000Z</time>
      </trkpt>
      <trkpt lat="43.54623" lon="6.29543">
        <ele>443</ele>
        <time>2026-01-07T12:57:39.000Z</time>
      </trkpt>
      <trkpt lat="43.54623" lon="6.29557">
        <ele>443</ele>
        <time>2026-01-07T12:57:48.000Z</time>
      </trkpt>
      <trkpt lat="43.54622" lon="6.29569">
        <ele>443</ele>
        <time>2026-01-07T12:57:57.000Z</time>
      </trkpt>
      <trkpt lat="43.54621" lon="6.29583">
        <ele>444</ele>
        <time>2026-01-07T12:58:06.000Z</time>
      </trkpt>
      <trkpt lat="43.5462" lon="6.29599">
        <ele>444</ele>
        <time>2026-01-07T12:58:15.000Z</time>
      </trkpt>
      <trkpt lat="43.54618" lon="6.29614">
        <ele>444</ele>
        <time>2026-01-07T12:58:24.000Z</time>
      </trkpt>
      <trkpt lat="43.54616" lon="6.29628">
        <ele>444</ele>
        <time>2026-01-07T12:58:33.000Z</time>
      </trkpt>
      <trkpt lat="43.54613" lon="6.2964">
        <ele>445</ele>
        <time>2026-01-07T12:58:39.000Z</time>
      </trkpt>
      <trkpt lat="43.54613" lon="6.29656">
        <ele>445</ele>
        <time>2026-01-07T12:58:48.000Z</time>
      </trkpt>
      <trkpt lat="43.54607" lon="6.29668">
        <ele>445</ele>
        <time>2026-01-07T12:59:00.000Z</time>
      </trkpt>
      <trkpt lat="43.54601" lon="6.29681">
        <ele>445</ele>
        <time>2026-01-07T12:59:09.000Z</time>
      </trkpt>
      <trkpt lat="43.54599" lon="6.29696">
        <ele>444</ele>
        <time>2026-01-07T12:59:18.000Z</time>
      </trkpt>
      <trkpt lat="43.54597" lon="6.29711">
        <ele>444</ele>
        <time>2026-01-07T12:59:27.000Z</time>
      </trkpt>
      <trkpt lat="43.54603" lon="6.29721">
        <ele>444</ele>
        <time>2026-01-07T12:59:36.000Z</time>
      </trkpt>
      <trkpt lat="43.54612" lon="6.29726">
        <ele>444</ele>
        <time>2026-01-07T12:59:45.000Z</time>
      </trkpt>
      <trkpt lat="43.5462" lon="6.29733">
        <ele>444</ele>
        <time>2026-01-07T12:59:54.000Z</time>
      </trkpt>
      <trkpt lat="43.54629" lon="6.29741">
        <ele>444</ele>
        <time>2026-01-07T13:00:03.000Z</time>
      </trkpt>
      <trkpt lat="43.54639" lon="6.29748">
        <ele>443</ele>
        <time>2026-01-07T13:00:12.000Z</time>
      </trkpt>
      <trkpt lat="43.5465" lon="6.29756">
        <ele>444</ele>
        <time>2026-01-07T13:00:24.000Z</time>
      </trkpt>
      <trkpt lat="43.54658" lon="6.29766">
        <ele>443</ele>
        <time>2026-01-07T13:00:33.000Z</time>
      </trkpt>
      <trkpt lat="43.54666" lon="6.29773">
        <ele>443</ele>
        <time>2026-01-07T13:00:42.000Z</time>
      </trkpt>
      <trkpt lat="43.54676" lon="6.29776">
        <ele>442</ele>
        <time>2026-01-07T13:00:54.000Z</time>
      </trkpt>
      <trkpt lat="43.54686" lon="6.29782">
        <ele>442</ele>
        <time>2026-01-07T13:01:09.000Z</time>
      </trkpt>
      <trkpt lat="43.54697" lon="6.29787">
        <ele>442</ele>
        <time>2026-01-07T13:01:21.000Z</time>
      </trkpt>
      <trkpt lat="43.54706" lon="6.29791">
        <ele>442</ele>
        <time>2026-01-07T13:01:30.000Z</time>
      </trkpt>
      <trkpt lat="43.54715" lon="6.29797">
        <ele>442</ele>
        <time>2026-01-07T13:01:39.000Z</time>
      </trkpt>
      <trkpt lat="43.54724" lon="6.29804">
        <ele>442</ele>
        <time>2026-01-07T13:01:48.000Z</time>
      </trkpt>
      <trkpt lat="43.54733" lon="6.29809">
        <ele>442</ele>
        <time>2026-01-07T13:01:57.000Z</time>
      </trkpt>
      <trkpt lat="43.54744" lon="6.29814">
        <ele>442</ele>
        <time>2026-01-07T13:02:06.000Z</time>
      </trkpt>
      <trkpt lat="43.54753" lon="6.29819">
        <ele>442</ele>
        <time>2026-01-07T13:02:15.000Z</time>
      </trkpt>
      <trkpt lat="43.54762" lon="6.29824">
        <ele>443</ele>
        <time>2026-01-07T13:02:24.000Z</time>
      </trkpt>
      <trkpt lat="43.54769" lon="6.29832">
        <ele>443</ele>
        <time>2026-01-07T13:02:33.000Z</time>
      </trkpt>
      <trkpt lat="43.54768" lon="6.29847">
        <ele>443</ele>
        <time>2026-01-07T13:02:42.000Z</time>
      </trkpt>
      <trkpt lat="43.54766" lon="6.29862">
        <ele>443</ele>
        <time>2026-01-07T13:02:51.000Z</time>
      </trkpt>
      <trkpt lat="43.54763" lon="6.29874">
        <ele>442</ele>
        <time>2026-01-07T13:03:00.000Z</time>
      </trkpt>
      <trkpt lat="43.5476" lon="6.29888">
        <ele>442</ele>
        <time>2026-01-07T13:03:12.000Z</time>
      </trkpt>
      <trkpt lat="43.54759" lon="6.29901">
        <ele>441</ele>
        <time>2026-01-07T13:03:21.000Z</time>
      </trkpt>
      <trkpt lat="43.54758" lon="6.29917">
        <ele>441</ele>
        <time>2026-01-07T13:03:30.000Z</time>
      </trkpt>
      <trkpt lat="43.54755" lon="6.29933">
        <ele>440</ele>
        <time>2026-01-07T13:03:51.000Z</time>
      </trkpt>
      <trkpt lat="43.54754" lon="6.29946">
        <ele>440</ele>
        <time>2026-01-07T13:03:57.000Z</time>
      </trkpt>
      <trkpt lat="43.54751" lon="6.29959">
        <ele>440</ele>
        <time>2026-01-07T13:04:06.000Z</time>
      </trkpt>
      <trkpt lat="43.54749" lon="6.29971">
        <ele>440</ele>
        <time>2026-01-07T13:04:15.000Z</time>
      </trkpt>
      <trkpt lat="43.54746" lon="6.29985">
        <ele>441</ele>
        <time>2026-01-07T13:04:24.000Z</time>
      </trkpt>
      <trkpt lat="43.54743" lon="6.3">
        <ele>441</ele>
        <time>2026-01-07T13:04:33.000Z</time>
      </trkpt>
      <trkpt lat="43.5474" lon="6.30014">
        <ele>442</ele>
        <time>2026-01-07T13:04:42.000Z</time>
      </trkpt>
      <trkpt lat="43.54736" lon="6.30031">
        <ele>443</ele>
        <time>2026-01-07T13:04:53.000Z</time>
      </trkpt>
      <trkpt lat="43.54732" lon="6.30044">
        <ele>443</ele>
        <time>2026-01-07T13:05:02.000Z</time>
      </trkpt>
      <trkpt lat="43.54731" lon="6.30058">
        <ele>444</ele>
        <time>2026-01-07T13:05:11.000Z</time>
      </trkpt>
      <trkpt lat="43.54727" lon="6.3007">
        <ele>444</ele>
        <time>2026-01-07T13:05:20.000Z</time>
      </trkpt>
      <trkpt lat="43.54724" lon="6.30084">
        <ele>444</ele>
        <time>2026-01-07T13:05:29.000Z</time>
      </trkpt>
      <trkpt lat="43.54722" lon="6.30099">
        <ele>443</ele>
        <time>2026-01-07T13:05:38.000Z</time>
      </trkpt>
      <trkpt lat="43.54719" lon="6.30113">
        <ele>443</ele>
        <time>2026-01-07T13:05:47.000Z</time>
      </trkpt>
      <trkpt lat="43.54711" lon="6.30116">
        <ele>442</ele>
        <time>2026-01-07T13:06:02.000Z</time>
      </trkpt>
      <trkpt lat="43.54701" lon="6.30116">
        <ele>442</ele>
        <time>2026-01-07T13:06:23.000Z</time>
      </trkpt>
      <trkpt lat="43.54695" lon="6.30125">
        <ele>442</ele>
        <time>2026-01-07T13:06:32.000Z</time>
      </trkpt>
      <trkpt lat="43.5469" lon="6.30137">
        <ele>442</ele>
        <time>2026-01-07T13:06:41.000Z</time>
      </trkpt>
      <trkpt lat="43.54685" lon="6.30149">
        <ele>443</ele>
        <time>2026-01-07T13:06:50.000Z</time>
      </trkpt>
      <trkpt lat="43.5468" lon="6.3016">
        <ele>443</ele>
        <time>2026-01-07T13:06:59.000Z</time>
      </trkpt>
      <trkpt lat="43.54676" lon="6.30172">
        <ele>443</ele>
        <time>2026-01-07T13:07:08.000Z</time>
      </trkpt>
      <trkpt lat="43.54671" lon="6.30185">
        <ele>443</ele>
        <time>2026-01-07T13:07:17.000Z</time>
      </trkpt>
      <trkpt lat="43.54668" lon="6.30198">
        <ele>443</ele>
        <time>2026-01-07T13:07:26.000Z</time>
      </trkpt>
      <trkpt lat="43.54666" lon="6.30211">
        <ele>444</ele>
        <time>2026-01-07T13:07:35.000Z</time>
      </trkpt>
      <trkpt lat="43.5466" lon="6.30226">
        <ele>444</ele>
        <time>2026-01-07T13:07:47.000Z</time>
      </trkpt>
      <trkpt lat="43.54651" lon="6.30236">
        <ele>445</ele>
        <time>2026-01-07T13:07:56.000Z</time>
      </trkpt>
      <trkpt lat="43.54643" lon="6.30245">
        <ele>446</ele>
        <time>2026-01-07T13:08:05.000Z</time>
      </trkpt>
      <trkpt lat="43.54636" lon="6.30257">
        <ele>447</ele>
        <time>2026-01-07T13:08:14.000Z</time>
      </trkpt>
      <trkpt lat="43.54632" lon="6.30268">
        <ele>448</ele>
        <time>2026-01-07T13:08:23.000Z</time>
      </trkpt>
      <trkpt lat="43.5463" lon="6.30279">
        <ele>449</ele>
        <time>2026-01-07T13:08:41.000Z</time>
      </trkpt>
      <trkpt lat="43.54636" lon="6.30287">
        <ele>449</ele>
        <time>2026-01-07T13:09:11.000Z</time>
      </trkpt>
      <trkpt lat="43.54641" lon="6.30297">
        <ele>450</ele>
        <time>2026-01-07T13:09:26.000Z</time>
      </trkpt>
      <trkpt lat="43.54648" lon="6.30304">
        <ele>450</ele>
        <time>2026-01-07T13:09:38.000Z</time>
      </trkpt>
      <trkpt lat="43.54654" lon="6.30313">
        <ele>451</ele>
        <time>2026-01-07T13:09:59.000Z</time>
      </trkpt>
      <trkpt lat="43.5466" lon="6.30322">
        <ele>451</ele>
        <time>2026-01-07T13:10:53.000Z</time>
      </trkpt>
      <trkpt lat="43.54666" lon="6.3033">
        <ele>451</ele>
        <time>2026-01-07T13:11:17.000Z</time>
      </trkpt>
      <trkpt lat="43.54659" lon="6.30333">
        <ele>451</ele>
        <time>2026-01-07T13:15:47.000Z</time>
      </trkpt>
      <trkpt lat="43.54651" lon="6.30335">
        <ele>450</ele>
        <time>2026-01-07T13:16:44.000Z</time>
      </trkpt>
      <trkpt lat="43.54644" lon="6.30327">
        <ele>449</ele>
        <time>2026-01-07T13:17:20.000Z</time>
      </trkpt>
      <trkpt lat="43.54644" lon="6.30315">
        <ele>449</ele>
        <time>2026-01-07T13:18:38.000Z</time>
      </trkpt>
      <trkpt lat="43.54643" lon="6.30302">
        <ele>449</ele>
        <time>2026-01-07T13:18:59.000Z</time>
      </trkpt>
      <trkpt lat="43.54641" lon="6.30289">
        <ele>449</ele>
        <time>2026-01-07T13:19:17.000Z</time>
      </trkpt>
      <trkpt lat="43.54637" lon="6.30276">
        <ele>449</ele>
        <time>2026-01-07T13:19:41.000Z</time>
      </trkpt>
      <trkpt lat="43.54639" lon="6.30262">
        <ele>449</ele>
        <time>2026-01-07T13:20:32.000Z</time>
      </trkpt>
      <trkpt lat="43.54644" lon="6.30249">
        <ele>449</ele>
        <time>2026-01-07T13:20:41.000Z</time>
      </trkpt>
      <trkpt lat="43.54649" lon="6.30237">
        <ele>449</ele>
        <time>2026-01-07T13:20:50.000Z</time>
      </trkpt>
      <trkpt lat="43.54656" lon="6.30226">
        <ele>449</ele>
        <time>2026-01-07T13:20:59.000Z</time>
      </trkpt>
      <trkpt lat="43.54662" lon="6.30215">
        <ele>449</ele>
        <time>2026-01-07T13:21:08.000Z</time>
      </trkpt>
      <trkpt lat="43.54667" lon="6.30202">
        <ele>448</ele>
        <time>2026-01-07T13:21:17.000Z</time>
      </trkpt>
      <trkpt lat="43.54671" lon="6.30189">
        <ele>448</ele>
        <time>2026-01-07T13:21:26.000Z</time>
      </trkpt>
      <trkpt lat="43.54675" lon="6.30176">
        <ele>448</ele>
        <time>2026-01-07T13:21:35.000Z</time>
      </trkpt>
      <trkpt lat="43.5468" lon="6.30164">
        <ele>447</ele>
        <time>2026-01-07T13:21:44.000Z</time>
      </trkpt>
      <trkpt lat="43.54686" lon="6.3015">
        <ele>447</ele>
        <time>2026-01-07T13:21:53.000Z</time>
      </trkpt>
      <trkpt lat="43.54691" lon="6.30137">
        <ele>447</ele>
        <time>2026-01-07T13:22:02.000Z</time>
      </trkpt>
      <trkpt lat="43.54697" lon="6.30125">
        <ele>447</ele>
        <time>2026-01-07T13:22:11.000Z</time>
      </trkpt>
      <trkpt lat="43.54706" lon="6.30121">
        <ele>447</ele>
        <time>2026-01-07T13:22:26.000Z</time>
      </trkpt>
      <trkpt lat="43.54715" lon="6.30118">
        <ele>447</ele>
        <time>2026-01-07T13:22:38.000Z</time>
      </trkpt>
      <trkpt lat="43.5472" lon="6.30108">
        <ele>446</ele>
        <time>2026-01-07T13:22:44.000Z</time>
      </trkpt>
      <trkpt lat="43.54723" lon="6.30095">
        <ele>446</ele>
        <time>2026-01-07T13:22:53.000Z</time>
      </trkpt>
      <trkpt lat="43.54724" lon="6.30081">
        <ele>446</ele>
        <time>2026-01-07T13:23:02.000Z</time>
      </trkpt>
      <trkpt lat="43.54727" lon="6.30067">
        <ele>446</ele>
        <time>2026-01-07T13:23:11.000Z</time>
      </trkpt>
      <trkpt lat="43.54729" lon="6.30054">
        <ele>446</ele>
        <time>2026-01-07T13:23:20.000Z</time>
      </trkpt>
      <trkpt lat="43.54732" lon="6.30041">
        <ele>446</ele>
        <time>2026-01-07T13:23:29.000Z</time>
      </trkpt>
      <trkpt lat="43.54736" lon="6.30028">
        <ele>446</ele>
        <time>2026-01-07T13:23:38.000Z</time>
      </trkpt>
      <trkpt lat="43.54739" lon="6.30014">
        <ele>446</ele>
        <time>2026-01-07T13:23:47.000Z</time>
      </trkpt>
      <trkpt lat="43.54741" lon="6.30002">
        <ele>446</ele>
        <time>2026-01-07T13:23:56.000Z</time>
      </trkpt>
      <trkpt lat="43.54744" lon="6.29988">
        <ele>446</ele>
        <time>2026-01-07T13:24:05.000Z</time>
      </trkpt>
      <trkpt lat="43.54746" lon="6.29974">
        <ele>445</ele>
        <time>2026-01-07T13:24:14.000Z</time>
      </trkpt>
      <trkpt lat="43.54749" lon="6.29961">
        <ele>445</ele>
        <time>2026-01-07T13:24:23.000Z</time>
      </trkpt>
      <trkpt lat="43.5475" lon="6.29947">
        <ele>445</ele>
        <time>2026-01-07T13:24:32.000Z</time>
      </trkpt>
      <trkpt lat="43.54753" lon="6.29935">
        <ele>445</ele>
        <time>2026-01-07T13:24:41.000Z</time>
      </trkpt>
      <trkpt lat="43.54755" lon="6.29922">
        <ele>445</ele>
        <time>2026-01-07T13:24:50.000Z</time>
      </trkpt>
      <trkpt lat="43.54758" lon="6.29909">
        <ele>445</ele>
        <time>2026-01-07T13:24:59.000Z</time>
      </trkpt>
      <trkpt lat="43.5476" lon="6.29895">
        <ele>445</ele>
        <time>2026-01-07T13:25:08.000Z</time>
      </trkpt>
      <trkpt lat="43.54761" lon="6.29881">
        <ele>445</ele>
        <time>2026-01-07T13:25:17.000Z</time>
      </trkpt>
      <trkpt lat="43.54763" lon="6.29866">
        <ele>445</ele>
        <time>2026-01-07T13:25:26.000Z</time>
      </trkpt>
      <trkpt lat="43.54764" lon="6.29853">
        <ele>445</ele>
        <time>2026-01-07T13:25:38.000Z</time>
      </trkpt>
      <trkpt lat="43.54767" lon="6.29841">
        <ele>445</ele>
        <time>2026-01-07T13:25:47.000Z</time>
      </trkpt>
      <trkpt lat="43.54767" lon="6.29829">
        <ele>444</ele>
        <time>2026-01-07T13:25:59.000Z</time>
      </trkpt>
      <trkpt lat="43.54758" lon="6.29823">
        <ele>444</ele>
        <time>2026-01-07T13:26:11.000Z</time>
      </trkpt>
      <trkpt lat="43.54749" lon="6.29817">
        <ele>444</ele>
        <time>2026-01-07T13:26:20.000Z</time>
      </trkpt>
      <trkpt lat="43.54739" lon="6.2981">
        <ele>443</ele>
        <time>2026-01-07T13:26:32.000Z</time>
      </trkpt>
      <trkpt lat="43.54734" lon="6.29799">
        <ele>444</ele>
        <time>2026-01-07T13:26:59.000Z</time>
      </trkpt>
      <trkpt lat="43.54736" lon="6.29785">
        <ele>444</ele>
        <time>2026-01-07T13:27:14.000Z</time>
      </trkpt>
      <trkpt lat="43.5474" lon="6.29773">
        <ele>445</ele>
        <time>2026-01-07T13:27:53.000Z</time>
      </trkpt>
      <trkpt lat="43.54742" lon="6.29759">
        <ele>445</ele>
        <time>2026-01-07T13:28:05.000Z</time>
      </trkpt>
      <trkpt lat="43.54746" lon="6.29747">
        <ele>446</ele>
        <time>2026-01-07T13:28:14.000Z</time>
      </trkpt>
      <trkpt lat="43.54749" lon="6.29732">
        <ele>446</ele>
        <time>2026-01-07T13:28:29.000Z</time>
      </trkpt>
      <trkpt lat="43.54752" lon="6.29718">
        <ele>446</ele>
        <time>2026-01-07T13:28:38.000Z</time>
      </trkpt>
      <trkpt lat="43.54753" lon="6.29706">
        <ele>446</ele>
        <time>2026-01-07T13:28:47.000Z</time>
      </trkpt>
      <trkpt lat="43.54755" lon="6.29693">
        <ele>446</ele>
        <time>2026-01-07T13:28:56.000Z</time>
      </trkpt>
      <trkpt lat="43.54756" lon="6.29681">
        <ele>446</ele>
        <time>2026-01-07T13:29:05.000Z</time>
      </trkpt>
      <trkpt lat="43.54756" lon="6.29669">
        <ele>445</ele>
        <time>2026-01-07T13:29:17.000Z</time>
      </trkpt>
      <trkpt lat="43.54759" lon="6.29656">
        <ele>445</ele>
        <time>2026-01-07T13:29:29.000Z</time>
      </trkpt>
      <trkpt lat="43.54763" lon="6.29644">
        <ele>444</ele>
        <time>2026-01-07T13:29:41.000Z</time>
      </trkpt>
      <trkpt lat="43.54766" lon="6.29631">
        <ele>444</ele>
        <time>2026-01-07T13:29:50.000Z</time>
      </trkpt>
      <trkpt lat="43.5477" lon="6.29618">
        <ele>444</ele>
        <time>2026-01-07T13:29:59.000Z</time>
      </trkpt>
      <trkpt lat="43.54774" lon="6.29605">
        <ele>444</ele>
        <time>2026-01-07T13:30:11.000Z</time>
      </trkpt>
      <trkpt lat="43.54777" lon="6.29591">
        <ele>444</ele>
        <time>2026-01-07T13:30:20.000Z</time>
      </trkpt>
      <trkpt lat="43.54779" lon="6.29579">
        <ele>443</ele>
        <time>2026-01-07T13:30:29.000Z</time>
      </trkpt>
      <trkpt lat="43.54775" lon="6.29567">
        <ele>443</ele>
        <time>2026-01-07T13:30:41.000Z</time>
      </trkpt>
      <trkpt lat="43.54771" lon="6.29557">
        <ele>442</ele>
        <time>2026-01-07T13:30:53.000Z</time>
      </trkpt>
      <trkpt lat="43.54762" lon="6.29551">
        <ele>442</ele>
        <time>2026-01-07T13:31:05.000Z</time>
      </trkpt>
      <trkpt lat="43.54753" lon="6.29544">
        <ele>442</ele>
        <time>2026-01-07T13:31:17.000Z</time>
      </trkpt>
      <trkpt lat="43.54749" lon="6.29533">
        <ele>442</ele>
        <time>2026-01-07T13:31:29.000Z</time>
      </trkpt>
      <trkpt lat="43.54743" lon="6.29521">
        <ele>441</ele>
        <time>2026-01-07T13:31:41.000Z</time>
      </trkpt>
      <trkpt lat="43.54735" lon="6.29513">
        <ele>441</ele>
        <time>2026-01-07T13:31:50.000Z</time>
      </trkpt>
      <trkpt lat="43.54727" lon="6.29509">
        <ele>441</ele>
        <time>2026-01-07T13:31:59.000Z</time>
      </trkpt>
      <trkpt lat="43.54718" lon="6.29504">
        <ele>441</ele>
        <time>2026-01-07T13:32:08.000Z</time>
      </trkpt>
      <trkpt lat="43.54709" lon="6.29499">
        <ele>442</ele>
        <time>2026-01-07T13:32:17.000Z</time>
      </trkpt>
      <trkpt lat="43.54701" lon="6.2949">
        <ele>442</ele>
        <time>2026-01-07T13:32:29.000Z</time>
      </trkpt>
      <trkpt lat="43.54693" lon="6.29484">
        <ele>443</ele>
        <time>2026-01-07T13:32:38.000Z</time>
      </trkpt>
      <trkpt lat="43.54684" lon="6.29481">
        <ele>443</ele>
        <time>2026-01-07T13:32:47.000Z</time>
      </trkpt>
      <trkpt lat="43.54676" lon="6.29473">
        <ele>444</ele>
        <time>2026-01-07T13:32:59.000Z</time>
      </trkpt>
      <trkpt lat="43.54675" lon="6.29462">
        <ele>444</ele>
        <time>2026-01-07T13:33:11.000Z</time>
      </trkpt>
      <trkpt lat="43.54671" lon="6.29451">
        <ele>445</ele>
        <time>2026-01-07T13:34:20.000Z</time>
      </trkpt>
      <trkpt lat="43.54671" lon="6.29439">
        <ele>446</ele>
        <time>2026-01-07T13:35:14.000Z</time>
      </trkpt>
      <trkpt lat="43.54676" lon="6.29429">
        <ele>446</ele>
        <time>2026-01-07T13:35:29.000Z</time>
      </trkpt>
      <trkpt lat="43.54681" lon="6.29418">
        <ele>446</ele>
        <time>2026-01-07T13:35:38.000Z</time>
      </trkpt>
      <trkpt lat="43.54685" lon="6.29406">
        <ele>447</ele>
        <time>2026-01-07T13:35:50.000Z</time>
      </trkpt>
      <trkpt lat="43.54691" lon="6.29394">
        <ele>447</ele>
        <time>2026-01-07T13:35:59.000Z</time>
      </trkpt>
      <trkpt lat="43.54697" lon="6.29382">
        <ele>447</ele>
        <time>2026-01-07T13:36:08.000Z</time>
      </trkpt>
      <trkpt lat="43.54704" lon="6.29371">
        <ele>448</ele>
        <time>2026-01-07T13:36:20.000Z</time>
      </trkpt>
      <trkpt lat="43.5471" lon="6.29359">
        <ele>448</ele>
        <time>2026-01-07T13:36:29.000Z</time>
      </trkpt>
      <trkpt lat="43.54716" lon="6.29347">
        <ele>448</ele>
        <time>2026-01-07T13:36:38.000Z</time>
      </trkpt>
      <trkpt lat="43.5472" lon="6.29335">
        <ele>448</ele>
        <time>2026-01-07T13:36:47.000Z</time>
      </trkpt>
      <trkpt lat="43.54721" lon="6.2932">
        <ele>449</ele>
        <time>2026-01-07T13:36:56.000Z</time>
      </trkpt>
      <trkpt lat="43.54723" lon="6.29305">
        <ele>449</ele>
        <time>2026-01-07T13:37:08.000Z</time>
      </trkpt>
      <trkpt lat="43.54729" lon="6.29292">
        <ele>449</ele>
        <time>2026-01-07T13:37:17.000Z</time>
      </trkpt>
      <trkpt lat="43.54735" lon="6.2928">
        <ele>449</ele>
        <time>2026-01-07T13:37:26.000Z</time>
      </trkpt>
      <trkpt lat="43.54738" lon="6.29267">
        <ele>449</ele>
        <time>2026-01-07T13:37:35.000Z</time>
      </trkpt>
      <trkpt lat="43.54739" lon="6.29253">
        <ele>449</ele>
        <time>2026-01-07T13:37:44.000Z</time>
      </trkpt>
      <trkpt lat="43.54737" lon="6.29241">
        <ele>449</ele>
        <time>2026-01-07T13:37:53.000Z</time>
      </trkpt>
      <trkpt lat="43.54733" lon="6.29229">
        <ele>449</ele>
        <time>2026-01-07T13:38:02.000Z</time>
      </trkpt>
      <trkpt lat="43.54729" lon="6.29217">
        <ele>450</ele>
        <time>2026-01-07T13:38:11.000Z</time>
      </trkpt>
      <trkpt lat="43.54725" lon="6.29204">
        <ele>451</ele>
        <time>2026-01-07T13:38:20.000Z</time>
      </trkpt>
      <trkpt lat="43.54721" lon="6.29189">
        <ele>451</ele>
        <time>2026-01-07T13:38:32.000Z</time>
      </trkpt>
      <trkpt lat="43.54717" lon="6.29176">
        <ele>452</ele>
        <time>2026-01-07T13:38:41.000Z</time>
      </trkpt>
      <trkpt lat="43.54715" lon="6.29162">
        <ele>453</ele>
        <time>2026-01-07T13:38:53.000Z</time>
      </trkpt>
      <trkpt lat="43.54717" lon="6.29149">
        <ele>453</ele>
        <time>2026-01-07T13:39:05.000Z</time>
      </trkpt>
      <trkpt lat="43.54719" lon="6.29134">
        <ele>454</ele>
        <time>2026-01-07T13:39:17.000Z</time>
      </trkpt>
      <trkpt lat="43.54719" lon="6.2912">
        <ele>455</ele>
        <time>2026-01-07T13:39:26.000Z</time>
      </trkpt>
      <trkpt lat="43.5472" lon="6.29107">
        <ele>455</ele>
        <time>2026-01-07T13:39:38.000Z</time>
      </trkpt>
      <trkpt lat="43.54721" lon="6.29093">
        <ele>456</ele>
        <time>2026-01-07T13:39:50.000Z</time>
      </trkpt>
      <trkpt lat="43.54726" lon="6.29081">
        <ele>456</ele>
        <time>2026-01-07T13:40:02.000Z</time>
      </trkpt>
      <trkpt lat="43.54733" lon="6.29068">
        <ele>457</ele>
        <time>2026-01-07T13:40:14.000Z</time>
      </trkpt>
      <trkpt lat="43.54737" lon="6.29056">
        <ele>457</ele>
        <time>2026-01-07T13:40:26.000Z</time>
      </trkpt>
      <trkpt lat="43.54742" lon="6.29044">
        <ele>457</ele>
        <time>2026-01-07T13:40:38.000Z</time>
      </trkpt>
      <trkpt lat="43.54747" lon="6.29032">
        <ele>457</ele>
        <time>2026-01-07T13:40:50.000Z</time>
      </trkpt>
      <trkpt lat="43.54752" lon="6.2902">
        <ele>457</ele>
        <time>2026-01-07T13:40:59.000Z</time>
      </trkpt>
      <trkpt lat="43.54757" lon="6.29009">
        <ele>457</ele>
        <time>2026-01-07T13:41:08.000Z</time>
      </trkpt>
      <trkpt lat="43.54762" lon="6.28999">
        <ele>457</ele>
        <time>2026-01-07T13:41:17.000Z</time>
      </trkpt>
      <trkpt lat="43.54768" lon="6.28988">
        <ele>457</ele>
        <time>2026-01-07T13:41:26.000Z</time>
      </trkpt>
      <trkpt lat="43.54772" lon="6.28977">
        <ele>457</ele>
        <time>2026-01-07T13:41:35.000Z</time>
      </trkpt>
      <trkpt lat="43.54776" lon="6.28965">
        <ele>458</ele>
        <time>2026-01-07T13:41:44.000Z</time>
      </trkpt>
      <trkpt lat="43.5478" lon="6.28953">
        <ele>458</ele>
        <time>2026-01-07T13:41:53.000Z</time>
      </trkpt>
      <trkpt lat="43.54785" lon="6.2894">
        <ele>458</ele>
        <time>2026-01-07T13:42:02.000Z</time>
      </trkpt>
      <trkpt lat="43.5479" lon="6.28928">
        <ele>458</ele>
        <time>2026-01-07T13:42:11.000Z</time>
      </trkpt>
      <trkpt lat="43.54793" lon="6.28915">
        <ele>458</ele>
        <time>2026-01-07T13:42:20.000Z</time>
      </trkpt>
      <trkpt lat="43.54796" lon="6.28901">
        <ele>458</ele>
        <time>2026-01-07T13:42:30.000Z</time>
      </trkpt>
      <trkpt lat="43.54798" lon="6.28888">
        <ele>458</ele>
        <time>2026-01-07T13:42:39.000Z</time>
      </trkpt>
      <trkpt lat="43.54801" lon="6.28876">
        <ele>458</ele>
        <time>2026-01-07T13:42:48.000Z</time>
      </trkpt>
      <trkpt lat="43.54805" lon="6.28862">
        <ele>459</ele>
        <time>2026-01-07T13:42:57.000Z</time>
      </trkpt>
      <trkpt lat="43.54809" lon="6.28848">
        <ele>459</ele>
        <time>2026-01-07T13:43:09.000Z</time>
      </trkpt>
      <trkpt lat="43.54815" lon="6.28836">
        <ele>459</ele>
        <time>2026-01-07T13:43:18.000Z</time>
      </trkpt>
      <trkpt lat="43.5482" lon="6.28823">
        <ele>459</ele>
        <time>2026-01-07T13:43:27.000Z</time>
      </trkpt>
      <trkpt lat="43.54826" lon="6.2881">
        <ele>459</ele>
        <time>2026-01-07T13:43:36.000Z</time>
      </trkpt>
      <trkpt lat="43.54829" lon="6.28799">
        <ele>459</ele>
        <time>2026-01-07T13:43:45.000Z</time>
      </trkpt>
      <trkpt lat="43.54833" lon="6.28788">
        <ele>459</ele>
        <time>2026-01-07T13:43:51.000Z</time>
      </trkpt>
      <trkpt lat="43.54836" lon="6.28776">
        <ele>459</ele>
        <time>2026-01-07T13:44:00.000Z</time>
      </trkpt>
      <trkpt lat="43.54839" lon="6.28763">
        <ele>459</ele>
        <time>2026-01-07T13:44:09.000Z</time>
      </trkpt>
      <trkpt lat="43.54844" lon="6.2875">
        <ele>459</ele>
        <time>2026-01-07T13:44:18.000Z</time>
      </trkpt>
      <trkpt lat="43.54847" lon="6.28738">
        <ele>459</ele>
        <time>2026-01-07T13:44:27.000Z</time>
      </trkpt>
      <trkpt lat="43.54847" lon="6.28724">
        <ele>460</ele>
        <time>2026-01-07T13:44:36.000Z</time>
      </trkpt>
      <trkpt lat="43.54849" lon="6.28711">
        <ele>460</ele>
        <time>2026-01-07T13:44:45.000Z</time>
      </trkpt>
      <trkpt lat="43.54851" lon="6.28699">
        <ele>460</ele>
        <time>2026-01-07T13:44:54.000Z</time>
      </trkpt>
      <trkpt lat="43.54854" lon="6.28686">
        <ele>460</ele>
        <time>2026-01-07T13:45:03.000Z</time>
      </trkpt>
      <trkpt lat="43.54859" lon="6.28674">
        <ele>460</ele>
        <time>2026-01-07T13:45:12.000Z</time>
      </trkpt>
      <trkpt lat="43.54866" lon="6.28662">
        <ele>460</ele>
        <time>2026-01-07T13:45:23.000Z</time>
      </trkpt>
      <trkpt lat="43.54873" lon="6.28649">
        <ele>460</ele>
        <time>2026-01-07T13:45:35.000Z</time>
      </trkpt>
      <trkpt lat="43.54878" lon="6.28637">
        <ele>460</ele>
        <time>2026-01-07T13:45:53.000Z</time>
      </trkpt>
      <trkpt lat="43.54883" lon="6.28626">
        <ele>460</ele>
        <time>2026-01-07T13:46:02.000Z</time>
      </trkpt>
      <trkpt lat="43.54887" lon="6.28614">
        <ele>459</ele>
        <time>2026-01-07T13:46:11.000Z</time>
      </trkpt>
      <trkpt lat="43.54891" lon="6.28602">
        <ele>459</ele>
        <time>2026-01-07T13:46:20.000Z</time>
      </trkpt>
      <trkpt lat="43.54896" lon="6.28591">
        <ele>458</ele>
        <time>2026-01-07T13:46:29.000Z</time>
      </trkpt>
      <trkpt lat="43.54901" lon="6.28579">
        <ele>458</ele>
        <time>2026-01-07T13:46:38.000Z</time>
      </trkpt>
      <trkpt lat="43.54904" lon="6.28566">
        <ele>458</ele>
        <time>2026-01-07T13:46:47.000Z</time>
      </trkpt>
      <trkpt lat="43.54907" lon="6.28551">
        <ele>458</ele>
        <time>2026-01-07T13:46:56.000Z</time>
      </trkpt>
      <trkpt lat="43.5491" lon="6.28535">
        <ele>459</ele>
        <time>2026-01-07T13:47:05.000Z</time>
      </trkpt>
      <trkpt lat="43.54912" lon="6.28522">
        <ele>459</ele>
        <time>2026-01-07T13:47:14.000Z</time>
      </trkpt>
      <trkpt lat="43.54916" lon="6.28509">
        <ele>460</ele>
        <time>2026-01-07T13:47:23.000Z</time>
      </trkpt>
      <trkpt lat="43.54917" lon="6.28496">
        <ele>460</ele>
        <time>2026-01-07T13:47:35.000Z</time>
      </trkpt>
      <trkpt lat="43.5492" lon="6.28482">
        <ele>460</ele>
        <time>2026-01-07T13:47:44.000Z</time>
      </trkpt>
      <trkpt lat="43.54922" lon="6.28467">
        <ele>461</ele>
        <time>2026-01-07T13:47:56.000Z</time>
      </trkpt>
      <trkpt lat="43.54923" lon="6.28453">
        <ele>461</ele>
        <time>2026-01-07T13:48:05.000Z</time>
      </trkpt>
      <trkpt lat="43.54924" lon="6.2844">
        <ele>461</ele>
        <time>2026-01-07T13:48:14.000Z</time>
      </trkpt>
      <trkpt lat="43.54926" lon="6.28428">
        <ele>461</ele>
        <time>2026-01-07T13:48:23.000Z</time>
      </trkpt>
      <trkpt lat="43.54927" lon="6.28413">
        <ele>461</ele>
        <time>2026-01-07T13:48:32.000Z</time>
      </trkpt>
      <trkpt lat="43.54929" lon="6.284">
        <ele>461</ele>
        <time>2026-01-07T13:48:41.000Z</time>
      </trkpt>
      <trkpt lat="43.54933" lon="6.28386">
        <ele>461</ele>
        <time>2026-01-07T13:48:50.000Z</time>
      </trkpt>
      <trkpt lat="43.54934" lon="6.28374">
        <ele>461</ele>
        <time>2026-01-07T13:48:59.000Z</time>
      </trkpt>
      <trkpt lat="43.54937" lon="6.28361">
        <ele>461</ele>
        <time>2026-01-07T13:49:08.000Z</time>
      </trkpt>
      <trkpt lat="43.54939" lon="6.28347">
        <ele>462</ele>
        <time>2026-01-07T13:49:17.000Z</time>
      </trkpt>
      <trkpt lat="43.54938" lon="6.28333">
        <ele>462</ele>
        <time>2026-01-07T13:49:26.000Z</time>
      </trkpt>
      <trkpt lat="43.54938" lon="6.28319">
        <ele>461</ele>
        <time>2026-01-07T13:49:35.000Z</time>
      </trkpt>
      <trkpt lat="43.54938" lon="6.28302">
        <ele>461</ele>
        <time>2026-01-07T13:49:47.000Z</time>
      </trkpt>
      <trkpt lat="43.54937" lon="6.28287">
        <ele>461</ele>
        <time>2026-01-07T13:49:56.000Z</time>
      </trkpt>
      <trkpt lat="43.54934" lon="6.28275">
        <ele>461</ele>
        <time>2026-01-07T13:50:05.000Z</time>
      </trkpt>
      <trkpt lat="43.54932" lon="6.28263">
        <ele>461</ele>
        <time>2026-01-07T13:50:14.000Z</time>
      </trkpt>
      <trkpt lat="43.54931" lon="6.2825">
        <ele>461</ele>
        <time>2026-01-07T13:50:23.000Z</time>
      </trkpt>
      <trkpt lat="43.54932" lon="6.28235">
        <ele>461</ele>
        <time>2026-01-07T13:50:32.000Z</time>
      </trkpt>
      <trkpt lat="43.54934" lon="6.28221">
        <ele>461</ele>
        <time>2026-01-07T13:50:41.000Z</time>
      </trkpt>
      <trkpt lat="43.54934" lon="6.28206">
        <ele>462</ele>
        <time>2026-01-07T13:50:50.000Z</time>
      </trkpt>
      <trkpt lat="43.54932" lon="6.28193">
        <ele>462</ele>
        <time>2026-01-07T13:51:02.000Z</time>
      </trkpt>
      <trkpt lat="43.5493" lon="6.28179">
        <ele>462</ele>
        <time>2026-01-07T13:51:11.000Z</time>
      </trkpt>
      <trkpt lat="43.54927" lon="6.28166">
        <ele>462</ele>
        <time>2026-01-07T13:51:20.000Z</time>
      </trkpt>
      <trkpt lat="43.54924" lon="6.28152">
        <ele>462</ele>
        <time>2026-01-07T13:51:29.000Z</time>
      </trkpt>
      <trkpt lat="43.5492" lon="6.28141">
        <ele>462</ele>
        <time>2026-01-07T13:51:35.000Z</time>
      </trkpt>
      <trkpt lat="43.54912" lon="6.2813">
        <ele>462</ele>
        <time>2026-01-07T13:51:44.000Z</time>
      </trkpt>
      <trkpt lat="43.54906" lon="6.28121">
        <ele>463</ele>
        <time>2026-01-07T13:51:53.000Z</time>
      </trkpt>
      <trkpt lat="43.54898" lon="6.28113">
        <ele>464</ele>
        <time>2026-01-07T13:52:02.000Z</time>
      </trkpt>
      <trkpt lat="43.54888" lon="6.28106">
        <ele>464</ele>
        <time>2026-01-07T13:52:11.000Z</time>
      </trkpt>
      <trkpt lat="43.5488" lon="6.28099">
        <ele>465</ele>
        <time>2026-01-07T13:52:23.000Z</time>
      </trkpt>
      <trkpt lat="43.54871" lon="6.28095">
        <ele>465</ele>
        <time>2026-01-07T13:52:32.000Z</time>
      </trkpt>
      <trkpt lat="43.54863" lon="6.28089">
        <ele>465</ele>
        <time>2026-01-07T13:52:41.000Z</time>
      </trkpt>
      <trkpt lat="43.54855" lon="6.2808">
        <ele>466</ele>
        <time>2026-01-07T13:52:50.000Z</time>
      </trkpt>
      <trkpt lat="43.54844" lon="6.28076">
        <ele>466</ele>
        <time>2026-01-07T13:52:59.000Z</time>
      </trkpt>
      <trkpt lat="43.54833" lon="6.28069">
        <ele>466</ele>
        <time>2026-01-07T13:53:12.000Z</time>
      </trkpt>
      <trkpt lat="43.54825" lon="6.28064">
        <ele>466</ele>
        <time>2026-01-07T13:53:21.000Z</time>
      </trkpt>
      <trkpt lat="43.54816" lon="6.28059">
        <ele>467</ele>
        <time>2026-01-07T13:53:30.000Z</time>
      </trkpt>
      <trkpt lat="43.54807" lon="6.28055">
        <ele>467</ele>
        <time>2026-01-07T13:53:39.000Z</time>
      </trkpt>
      <trkpt lat="43.54797" lon="6.28051">
        <ele>467</ele>
        <time>2026-01-07T13:53:51.000Z</time>
      </trkpt>
      <trkpt lat="43.54787" lon="6.28048">
        <ele>467</ele>
        <time>2026-01-07T13:54:00.000Z</time>
      </trkpt>
      <trkpt lat="43.54777" lon="6.28046">
        <ele>467</ele>
        <time>2026-01-07T13:54:09.000Z</time>
      </trkpt>
      <trkpt lat="43.54768" lon="6.28049">
        <ele>468</ele>
        <time>2026-01-07T13:54:18.000Z</time>
      </trkpt>
      <trkpt lat="43.5476" lon="6.28057">
        <ele>469</ele>
        <time>2026-01-07T13:54:27.000Z</time>
      </trkpt>
      <trkpt lat="43.54753" lon="6.28064">
        <ele>469</ele>
        <time>2026-01-07T13:54:36.000Z</time>
      </trkpt>
      <trkpt lat="43.54744" lon="6.2807">
        <ele>469</ele>
        <time>2026-01-07T13:54:48.000Z</time>
      </trkpt>
      <trkpt lat="43.54734" lon="6.28073">
        <ele>470</ele>
        <time>2026-01-07T13:54:57.000Z</time>
      </trkpt>
      <trkpt lat="43.54725" lon="6.28074">
        <ele>470</ele>
        <time>2026-01-07T13:55:12.000Z</time>
      </trkpt>
      <trkpt lat="43.54713" lon="6.28074">
        <ele>470</ele>
        <time>2026-01-07T13:55:24.000Z</time>
      </trkpt>
      <trkpt lat="43.54703" lon="6.28074">
        <ele>471</ele>
        <time>2026-01-07T13:55:33.000Z</time>
      </trkpt>
      <trkpt lat="43.54693" lon="6.28073">
        <ele>471</ele>
        <time>2026-01-07T13:55:42.000Z</time>
      </trkpt>
      <trkpt lat="43.54683" lon="6.28069">
        <ele>472</ele>
        <time>2026-01-07T13:55:54.000Z</time>
      </trkpt>
      <trkpt lat="43.54672" lon="6.28065">
        <ele>472</ele>
        <time>2026-01-07T13:56:06.000Z</time>
      </trkpt>
      <trkpt lat="43.54663" lon="6.28063">
        <ele>473</ele>
        <time>2026-01-07T13:56:15.000Z</time>
      </trkpt>
      <trkpt lat="43.54653" lon="6.28058">
        <ele>473</ele>
        <time>2026-01-07T13:56:27.000Z</time>
      </trkpt>
      <trkpt lat="43.54645" lon="6.28052">
        <ele>474</ele>
        <time>2026-01-07T13:56:36.000Z</time>
      </trkpt>
      <trkpt lat="43.5464" lon="6.2804">
        <ele>474</ele>
        <time>2026-01-07T13:56:45.000Z</time>
      </trkpt>
      <trkpt lat="43.54634" lon="6.28029">
        <ele>475</ele>
        <time>2026-01-07T13:56:54.000Z</time>
      </trkpt>
      <trkpt lat="43.54625" lon="6.28022">
        <ele>475</ele>
        <time>2026-01-07T13:57:03.000Z</time>
      </trkpt>
      <trkpt lat="43.54616" lon="6.28017">
        <ele>476</ele>
        <time>2026-01-07T13:57:12.000Z</time>
      </trkpt>
      <trkpt lat="43.54607" lon="6.28013">
        <ele>477</ele>
        <time>2026-01-07T13:57:21.000Z</time>
      </trkpt>
      <trkpt lat="43.54596" lon="6.28011">
        <ele>478</ele>
        <time>2026-01-07T13:57:30.000Z</time>
      </trkpt>
      <trkpt lat="43.54588" lon="6.28005">
        <ele>479</ele>
        <time>2026-01-07T13:57:39.000Z</time>
      </trkpt>
      <trkpt lat="43.54578" lon="6.28002">
        <ele>479</ele>
        <time>2026-01-07T13:57:48.000Z</time>
      </trkpt>
      <trkpt lat="43.54568" lon="6.28">
        <ele>480</ele>
        <time>2026-01-07T13:57:57.000Z</time>
      </trkpt>
      <trkpt lat="43.54557" lon="6.28">
        <ele>481</ele>
        <time>2026-01-07T13:58:06.000Z</time>
      </trkpt>
      <trkpt lat="43.54544" lon="6.28">
        <ele>481</ele>
        <time>2026-01-07T13:58:15.000Z</time>
      </trkpt>
      <trkpt lat="43.54532" lon="6.28001">
        <ele>482</ele>
        <time>2026-01-07T13:58:24.000Z</time>
      </trkpt>
      <trkpt lat="43.5452" lon="6.28003">
        <ele>482</ele>
        <time>2026-01-07T13:58:33.000Z</time>
      </trkpt>
      <trkpt lat="43.54509" lon="6.28006">
        <ele>483</ele>
        <time>2026-01-07T13:58:42.000Z</time>
      </trkpt>
      <trkpt lat="43.545" lon="6.28011">
        <ele>483</ele>
        <time>2026-01-07T13:58:51.000Z</time>
      </trkpt>
      <trkpt lat="43.54491" lon="6.28014">
        <ele>484</ele>
        <time>2026-01-07T13:59:00.000Z</time>
      </trkpt>
      <trkpt lat="43.54481" lon="6.28013">
        <ele>484</ele>
        <time>2026-01-07T13:59:09.000Z</time>
      </trkpt>
      <trkpt lat="43.54471" lon="6.28012">
        <ele>484</ele>
        <time>2026-01-07T13:59:18.000Z</time>
      </trkpt>
      <trkpt lat="43.5446" lon="6.28013">
        <ele>484</ele>
        <time>2026-01-07T13:59:27.000Z</time>
      </trkpt>
      <trkpt lat="43.54449" lon="6.28011">
        <ele>485</ele>
        <time>2026-01-07T13:59:36.000Z</time>
      </trkpt>
      <trkpt lat="43.54438" lon="6.2801">
        <ele>484</ele>
        <time>2026-01-07T13:59:45.000Z</time>
      </trkpt>
      <trkpt lat="43.54427" lon="6.28006">
        <ele>485</ele>
        <time>2026-01-07T13:59:54.000Z</time>
      </trkpt>
      <trkpt lat="43.54419" lon="6.27999">
        <ele>485</ele>
        <time>2026-01-07T14:00:03.000Z</time>
      </trkpt>
      <trkpt lat="43.54411" lon="6.27995">
        <ele>485</ele>
        <time>2026-01-07T14:03:41.000Z</time>
      </trkpt>
      <trkpt lat="43.54403" lon="6.27997">
        <ele>486</ele>
        <time>2026-01-07T14:03:59.000Z</time>
      </trkpt>
      <trkpt lat="43.54394" lon="6.28003">
        <ele>486</ele>
        <time>2026-01-07T14:04:11.000Z</time>
      </trkpt>
      <trkpt lat="43.54387" lon="6.28013">
        <ele>487</ele>
        <time>2026-01-07T14:04:31.000Z</time>
      </trkpt>
      <trkpt lat="43.54379" lon="6.28024">
        <ele>487</ele>
        <time>2026-01-07T14:04:42.000Z</time>
      </trkpt>
      <trkpt lat="43.54371" lon="6.28033">
        <ele>488</ele>
        <time>2026-01-07T14:04:51.000Z</time>
      </trkpt>
      <trkpt lat="43.54362" lon="6.28042">
        <ele>488</ele>
        <time>2026-01-07T14:05:00.000Z</time>
      </trkpt>
      <trkpt lat="43.54354" lon="6.28052">
        <ele>489</ele>
        <time>2026-01-07T14:05:09.000Z</time>
      </trkpt>
      <trkpt lat="43.54347" lon="6.28064">
        <ele>490</ele>
        <time>2026-01-07T14:05:21.000Z</time>
      </trkpt>
      <trkpt lat="43.54339" lon="6.28074">
        <ele>490</ele>
        <time>2026-01-07T14:05:30.000Z</time>
      </trkpt>
      <trkpt lat="43.54333" lon="6.28083">
        <ele>490</ele>
        <time>2026-01-07T14:06:12.000Z</time>
      </trkpt>
      <trkpt lat="43.54327" lon="6.28093">
        <ele>490</ele>
        <time>2026-01-07T14:06:21.000Z</time>
      </trkpt>
      <trkpt lat="43.54322" lon="6.28103">
        <ele>490</ele>
        <time>2026-01-07T14:06:30.000Z</time>
      </trkpt>
      <trkpt lat="43.54319" lon="6.28116">
        <ele>490</ele>
        <time>2026-01-07T14:06:39.000Z</time>
      </trkpt>
      <trkpt lat="43.54316" lon="6.28129">
        <ele>489</ele>
        <time>2026-01-07T14:06:48.000Z</time>
      </trkpt>
      <trkpt lat="43.54315" lon="6.28144">
        <ele>489</ele>
        <time>2026-01-07T14:06:57.000Z</time>
      </trkpt>
      <trkpt lat="43.54315" lon="6.28158">
        <ele>488</ele>
        <time>2026-01-07T14:07:06.000Z</time>
      </trkpt>
      <trkpt lat="43.54313" lon="6.2817">
        <ele>487</ele>
        <time>2026-01-07T14:07:18.000Z</time>
      </trkpt>
      <trkpt lat="43.54308" lon="6.28181">
        <ele>486</ele>
        <time>2026-01-07T14:07:33.000Z</time>
      </trkpt>
      <trkpt lat="43.54302" lon="6.28193">
        <ele>484</ele>
        <time>2026-01-07T14:08:36.000Z</time>
      </trkpt>
      <trkpt lat="43.54298" lon="6.28206">
        <ele>483</ele>
        <time>2026-01-07T14:08:48.000Z</time>
      </trkpt>
      <trkpt lat="43.54295" lon="6.2822">
        <ele>481</ele>
        <time>2026-01-07T14:09:00.000Z</time>
      </trkpt>
      <trkpt lat="43.54291" lon="6.28232">
        <ele>480</ele>
        <time>2026-01-07T14:09:09.000Z</time>
      </trkpt>
      <trkpt lat="43.54286" lon="6.28245">
        <ele>478</ele>
        <time>2026-01-07T14:09:21.000Z</time>
      </trkpt>
      <trkpt lat="43.54282" lon="6.28259">
        <ele>477</ele>
        <time>2026-01-07T14:09:33.000Z</time>
      </trkpt>
      <trkpt lat="43.54279" lon="6.28271">
        <ele>475</ele>
        <time>2026-01-07T14:09:42.000Z</time>
      </trkpt>
      <trkpt lat="43.54276" lon="6.28283">
        <ele>473</ele>
        <time>2026-01-07T14:09:51.000Z</time>
      </trkpt>
      <trkpt lat="43.54272" lon="6.28297">
        <ele>472</ele>
        <time>2026-01-07T14:10:03.000Z</time>
      </trkpt>
      <trkpt lat="43.54269" lon="6.28308">
        <ele>471</ele>
        <time>2026-01-07T14:10:12.000Z</time>
      </trkpt>
      <trkpt lat="43.54267" lon="6.28323">
        <ele>469</ele>
        <time>2026-01-07T14:10:24.000Z</time>
      </trkpt>
      <trkpt lat="43.54265" lon="6.28337">
        <ele>467</ele>
        <time>2026-01-07T14:11:12.000Z</time>
      </trkpt>
      <trkpt lat="43.54263" lon="6.28352">
        <ele>465</ele>
        <time>2026-01-07T14:11:24.000Z</time>
      </trkpt>
      <trkpt lat="43.54261" lon="6.28367">
        <ele>463</ele>
        <time>2026-01-07T14:11:36.000Z</time>
      </trkpt>
      <trkpt lat="43.54262" lon="6.28381">
        <ele>461</ele>
        <time>2026-01-07T14:11:48.000Z</time>
      </trkpt>
      <trkpt lat="43.54259" lon="6.28393">
        <ele>460</ele>
        <time>2026-01-07T14:11:57.000Z</time>
      </trkpt>
      <trkpt lat="43.54254" lon="6.28408">
        <ele>460</ele>
        <time>2026-01-07T14:12:09.000Z</time>
      </trkpt>
      <trkpt lat="43.5425" lon="6.2842">
        <ele>459</ele>
        <time>2026-01-07T14:12:15.000Z</time>
      </trkpt>
      <trkpt lat="43.54245" lon="6.28431">
        <ele>458</ele>
        <time>2026-01-07T14:12:24.000Z</time>
      </trkpt>
      <trkpt lat="43.54239" lon="6.28443">
        <ele>458</ele>
        <time>2026-01-07T14:12:33.000Z</time>
      </trkpt>
      <trkpt lat="43.54234" lon="6.28455">
        <ele>457</ele>
        <time>2026-01-07T14:12:42.000Z</time>
      </trkpt>
      <trkpt lat="43.54228" lon="6.28468">
        <ele>457</ele>
        <time>2026-01-07T14:12:51.000Z</time>
      </trkpt>
      <trkpt lat="43.5422" lon="6.28478">
        <ele>456</ele>
        <time>2026-01-07T14:13:00.000Z</time>
      </trkpt>
      <trkpt lat="43.54213" lon="6.28488">
        <ele>456</ele>
        <time>2026-01-07T14:13:09.000Z</time>
      </trkpt>
      <trkpt lat="43.54206" lon="6.28499">
        <ele>455</ele>
        <time>2026-01-07T14:13:15.000Z</time>
      </trkpt>
      <trkpt lat="43.54197" lon="6.28507">
        <ele>454</ele>
        <time>2026-01-07T14:13:24.000Z</time>
      </trkpt>
      <trkpt lat="43.5419" lon="6.28518">
        <ele>453</ele>
        <time>2026-01-07T14:13:33.000Z</time>
      </trkpt>
      <trkpt lat="43.54184" lon="6.28532">
        <ele>452</ele>
        <time>2026-01-07T14:13:42.000Z</time>
      </trkpt>
      <trkpt lat="43.54179" lon="6.28545">
        <ele>452</ele>
        <time>2026-01-07T14:13:51.000Z</time>
      </trkpt>
      <trkpt lat="43.54176" lon="6.28557">
        <ele>452</ele>
        <time>2026-01-07T14:13:57.000Z</time>
      </trkpt>
      <trkpt lat="43.54172" lon="6.2857">
        <ele>451</ele>
        <time>2026-01-07T14:14:06.000Z</time>
      </trkpt>
      <trkpt lat="43.54169" lon="6.28585">
        <ele>451</ele>
        <time>2026-01-07T14:14:15.000Z</time>
      </trkpt>
      <trkpt lat="43.54167" lon="6.28599">
        <ele>451</ele>
        <time>2026-01-07T14:14:24.000Z</time>
      </trkpt>
      <trkpt lat="43.54162" lon="6.28611">
        <ele>450</ele>
        <time>2026-01-07T14:14:33.000Z</time>
      </trkpt>
      <trkpt lat="43.54156" lon="6.28623">
        <ele>450</ele>
        <time>2026-01-07T14:14:42.000Z</time>
      </trkpt>
      <trkpt lat="43.5415" lon="6.28634">
        <ele>449</ele>
        <time>2026-01-07T14:14:51.000Z</time>
      </trkpt>
      <trkpt lat="43.54144" lon="6.28643">
        <ele>448</ele>
        <time>2026-01-07T14:14:57.000Z</time>
      </trkpt>
      <trkpt lat="43.54135" lon="6.28653">
        <ele>447</ele>
        <time>2026-01-07T14:15:06.000Z</time>
      </trkpt>
      <trkpt lat="43.54127" lon="6.2866">
        <ele>446</ele>
        <time>2026-01-07T14:15:18.000Z</time>
      </trkpt>
      <trkpt lat="43.54118" lon="6.28663">
        <ele>446</ele>
        <time>2026-01-07T14:15:24.000Z</time>
      </trkpt>
      <trkpt lat="43.54109" lon="6.28664">
        <ele>445</ele>
        <time>2026-01-07T14:15:33.000Z</time>
      </trkpt>
      <trkpt lat="43.541" lon="6.28664">
        <ele>444</ele>
        <time>2026-01-07T14:15:40.000Z</time>
      </trkpt>
      <trkpt lat="43.54089" lon="6.28666">
        <ele>442</ele>
        <time>2026-01-07T14:15:49.000Z</time>
      </trkpt>
      <trkpt lat="43.54078" lon="6.28667">
        <ele>441</ele>
        <time>2026-01-07T14:15:58.000Z</time>
      </trkpt>
      <trkpt lat="43.54067" lon="6.28667">
        <ele>439</ele>
        <time>2026-01-07T14:16:07.000Z</time>
      </trkpt>
      <trkpt lat="43.54058" lon="6.28665">
        <ele>438</ele>
        <time>2026-01-07T14:16:16.000Z</time>
      </trkpt>
      <trkpt lat="43.5405" lon="6.28663">
        <ele>437</ele>
        <time>2026-01-07T14:16:25.000Z</time>
      </trkpt>
      <trkpt lat="43.5404" lon="6.28659">
        <ele>436</ele>
        <time>2026-01-07T14:16:34.000Z</time>
      </trkpt>
      <trkpt lat="43.54032" lon="6.28653">
        <ele>435</ele>
        <time>2026-01-07T14:16:40.000Z</time>
      </trkpt>
      <trkpt lat="43.54031" lon="6.2864">
        <ele>434</ele>
        <time>2026-01-07T14:16:49.000Z</time>
      </trkpt>
      <trkpt lat="43.54035" lon="6.28625">
        <ele>434</ele>
        <time>2026-01-07T14:16:58.000Z</time>
      </trkpt>
      <trkpt lat="43.54036" lon="6.28612">
        <ele>433</ele>
        <time>2026-01-07T14:17:37.000Z</time>
      </trkpt>
      <trkpt lat="43.54034" lon="6.28598">
        <ele>433</ele>
        <time>2026-01-07T14:18:04.000Z</time>
      </trkpt>
      <trkpt lat="43.54028" lon="6.28586">
        <ele>433</ele>
        <time>2026-01-07T14:18:16.000Z</time>
      </trkpt>
      <trkpt lat="43.5402" lon="6.28579">
        <ele>433</ele>
        <time>2026-01-07T14:18:22.000Z</time>
      </trkpt>
      <trkpt lat="43.54011" lon="6.2857">
        <ele>433</ele>
        <time>2026-01-07T14:18:31.000Z</time>
      </trkpt>
      <trkpt lat="43.54004" lon="6.2856">
        <ele>433</ele>
        <time>2026-01-07T14:18:40.000Z</time>
      </trkpt>
      <trkpt lat="43.53997" lon="6.2855">
        <ele>433</ele>
        <time>2026-01-07T14:18:49.000Z</time>
      </trkpt>
      <trkpt lat="43.53989" lon="6.28541">
        <ele>433</ele>
        <time>2026-01-07T14:18:58.000Z</time>
      </trkpt>
      <trkpt lat="43.53981" lon="6.28532">
        <ele>433</ele>
        <time>2026-01-07T14:19:07.000Z</time>
      </trkpt>
      <trkpt lat="43.53972" lon="6.28527">
        <ele>433</ele>
        <time>2026-01-07T14:19:16.000Z</time>
      </trkpt>
      <trkpt lat="43.53961" lon="6.28521">
        <ele>434</ele>
        <time>2026-01-07T14:19:25.000Z</time>
      </trkpt>
      <trkpt lat="43.53952" lon="6.28514">
        <ele>434</ele>
        <time>2026-01-07T14:19:31.000Z</time>
      </trkpt>
      <trkpt lat="43.53943" lon="6.28506">
        <ele>435</ele>
        <time>2026-01-07T14:19:40.000Z</time>
      </trkpt>
      <trkpt lat="43.53931" lon="6.28502">
        <ele>435</ele>
        <time>2026-01-07T14:19:49.000Z</time>
      </trkpt>
      <trkpt lat="43.53919" lon="6.28496">
        <ele>435</ele>
        <time>2026-01-07T14:19:58.000Z</time>
      </trkpt>
      <trkpt lat="43.53909" lon="6.28488">
        <ele>434</ele>
        <time>2026-01-07T14:20:07.000Z</time>
      </trkpt>
      <trkpt lat="43.539" lon="6.28482">
        <ele>434</ele>
        <time>2026-01-07T14:20:16.000Z</time>
      </trkpt>
      <trkpt lat="43.53891" lon="6.28474">
        <ele>434</ele>
        <time>2026-01-07T14:20:25.000Z</time>
      </trkpt>
      <trkpt lat="43.53882" lon="6.2847">
        <ele>434</ele>
        <time>2026-01-07T14:20:34.000Z</time>
      </trkpt>
      <trkpt lat="43.53873" lon="6.28465">
        <ele>434</ele>
        <time>2026-01-07T14:20:43.000Z</time>
      </trkpt>
      <trkpt lat="43.53864" lon="6.28462">
        <ele>433</ele>
        <time>2026-01-07T14:20:49.000Z</time>
      </trkpt>
      <trkpt lat="43.53854" lon="6.2846">
        <ele>433</ele>
        <time>2026-01-07T14:20:58.000Z</time>
      </trkpt>
      <trkpt lat="43.53844" lon="6.28457">
        <ele>433</ele>
        <time>2026-01-07T14:21:07.000Z</time>
      </trkpt>
      <trkpt lat="43.53832" lon="6.28452">
        <ele>432</ele>
        <time>2026-01-07T14:21:16.000Z</time>
      </trkpt>
      <trkpt lat="43.53821" lon="6.28446">
        <ele>432</ele>
        <time>2026-01-07T14:21:25.000Z</time>
      </trkpt>
      <trkpt lat="43.53813" lon="6.28441">
        <ele>432</ele>
        <time>2026-01-07T14:21:31.000Z</time>
      </trkpt>
      <trkpt lat="43.53804" lon="6.28441">
        <ele>432</ele>
        <time>2026-01-07T14:22:43.000Z</time>
      </trkpt>
      <trkpt lat="43.53796" lon="6.2845">
        <ele>431</ele>
        <time>2026-01-07T14:22:58.000Z</time>
      </trkpt>
      <trkpt lat="43.53787" lon="6.28456">
        <ele>430</ele>
        <time>2026-01-07T14:23:10.000Z</time>
      </trkpt>
      <trkpt lat="43.53778" lon="6.28456">
        <ele>429</ele>
        <time>2026-01-07T14:23:22.000Z</time>
      </trkpt>
      <trkpt lat="43.53768" lon="6.28457">
        <ele>428</ele>
        <time>2026-01-07T14:23:34.000Z</time>
      </trkpt>
      <trkpt lat="43.53758" lon="6.28457">
        <ele>427</ele>
        <time>2026-01-07T14:23:43.000Z</time>
      </trkpt>
      <trkpt lat="43.53747" lon="6.28458">
        <ele>425</ele>
        <time>2026-01-07T14:23:55.000Z</time>
      </trkpt>
      <trkpt lat="43.53737" lon="6.2846">
        <ele>424</ele>
        <time>2026-01-07T14:24:04.000Z</time>
      </trkpt>
      <trkpt lat="43.53728" lon="6.28465">
        <ele>423</ele>
        <time>2026-01-07T14:24:13.000Z</time>
      </trkpt>
      <trkpt lat="43.53719" lon="6.28471">
        <ele>422</ele>
        <time>2026-01-07T14:24:25.000Z</time>
      </trkpt>
      <trkpt lat="43.53712" lon="6.28479">
        <ele>421</ele>
        <time>2026-01-07T14:24:34.000Z</time>
      </trkpt>
      <trkpt lat="43.53707" lon="6.28488">
        <ele>420</ele>
        <time>2026-01-07T14:25:04.000Z</time>
      </trkpt>
      <trkpt lat="43.53708" lon="6.285">
        <ele>419</ele>
        <time>2026-01-07T14:25:48.000Z</time>
      </trkpt>
      <trkpt lat="43.5371" lon="6.28512">
        <ele>417</ele>
        <time>2026-01-07T14:27:33.000Z</time>
      </trkpt>
      <trkpt lat="43.53708" lon="6.28524">
        <ele>416</ele>
        <time>2026-01-07T14:27:45.000Z</time>
      </trkpt>
      <trkpt lat="43.53698" lon="6.28528">
        <ele>415</ele>
        <time>2026-01-07T14:28:03.000Z</time>
      </trkpt>
      <trkpt lat="43.53689" lon="6.28531">
        <ele>414</ele>
        <time>2026-01-07T14:32:40.000Z</time>
      </trkpt>
      <trkpt lat="43.53679" lon="6.2853">
        <ele>414</ele>
        <time>2026-01-07T14:32:52.000Z</time>
      </trkpt>
      <trkpt lat="43.53669" lon="6.28527">
        <ele>413</ele>
        <time>2026-01-07T14:33:07.000Z</time>
      </trkpt>
      <trkpt lat="43.53658" lon="6.28523">
        <ele>413</ele>
        <time>2026-01-07T14:33:19.000Z</time>
      </trkpt>
      <trkpt lat="43.53647" lon="6.28521">
        <ele>413</ele>
        <time>2026-01-07T14:33:31.000Z</time>
      </trkpt>
      <trkpt lat="43.53636" lon="6.2852">
        <ele>412</ele>
        <time>2026-01-07T14:33:43.000Z</time>
      </trkpt>
      <trkpt lat="43.53627" lon="6.28519">
        <ele>412</ele>
        <time>2026-01-07T14:33:52.000Z</time>
      </trkpt>
      <trkpt lat="43.53617" lon="6.28516">
        <ele>410</ele>
        <time>2026-01-07T14:34:01.000Z</time>
      </trkpt>
      <trkpt lat="43.53607" lon="6.28516">
        <ele>409</ele>
        <time>2026-01-07T14:34:13.000Z</time>
      </trkpt>
      <trkpt lat="43.536" lon="6.28524">
        <ele>407</ele>
        <time>2026-01-07T14:34:28.000Z</time>
      </trkpt>
      <trkpt lat="43.53593" lon="6.28533">
        <ele>405</ele>
        <time>2026-01-07T14:34:43.000Z</time>
      </trkpt>
      <trkpt lat="43.53589" lon="6.28544">
        <ele>404</ele>
        <time>2026-01-07T14:35:16.000Z</time>
      </trkpt>
      <trkpt lat="43.5359" lon="6.28557">
        <ele>402</ele>
        <time>2026-01-07T14:35:52.000Z</time>
      </trkpt>
      <trkpt lat="43.53592" lon="6.2857">
        <ele>401</ele>
        <time>2026-01-07T14:36:01.000Z</time>
      </trkpt>
      <trkpt lat="43.53595" lon="6.28581">
        <ele>400</ele>
        <time>2026-01-07T14:36:10.000Z</time>
      </trkpt>
      <trkpt lat="43.53603" lon="6.2859">
        <ele>399</ele>
        <time>2026-01-07T14:36:19.000Z</time>
      </trkpt>
      <trkpt lat="43.53613" lon="6.28596">
        <ele>398</ele>
        <time>2026-01-07T14:36:28.000Z</time>
      </trkpt>
      <trkpt lat="43.53619" lon="6.28604">
        <ele>396</ele>
        <time>2026-01-07T14:36:37.000Z</time>
      </trkpt>
      <trkpt lat="43.53622" lon="6.28615">
        <ele>396</ele>
        <time>2026-01-07T14:36:46.000Z</time>
      </trkpt>
      <trkpt lat="43.53616" lon="6.28625">
        <ele>395</ele>
        <time>2026-01-07T14:36:55.000Z</time>
      </trkpt>
      <trkpt lat="43.53607" lon="6.28632">
        <ele>395</ele>
        <time>2026-01-07T14:37:13.000Z</time>
      </trkpt>
      <trkpt lat="43.536" lon="6.2864">
        <ele>395</ele>
        <time>2026-01-07T14:37:31.000Z</time>
      </trkpt>
      <trkpt lat="43.53592" lon="6.28648">
        <ele>394</ele>
        <time>2026-01-07T14:43:04.000Z</time>
      </trkpt>
      <trkpt lat="43.53585" lon="6.28655">
        <ele>394</ele>
        <time>2026-01-07T14:43:13.000Z</time>
      </trkpt>
      <trkpt lat="43.53577" lon="6.28664">
        <ele>394</ele>
        <time>2026-01-07T14:43:22.000Z</time>
      </trkpt>
      <trkpt lat="43.53571" lon="6.28673">
        <ele>394</ele>
        <time>2026-01-07T14:43:31.000Z</time>
      </trkpt>
      <trkpt lat="43.53564" lon="6.28682">
        <ele>394</ele>
        <time>2026-01-07T14:43:40.000Z</time>
      </trkpt>
      <trkpt lat="43.53562" lon="6.28695">
        <ele>395</ele>
        <time>2026-01-07T14:43:58.000Z</time>
      </trkpt>
      <trkpt lat="43.53567" lon="6.28708">
        <ele>395</ele>
        <time>2026-01-07T14:44:10.000Z</time>
      </trkpt>
      <trkpt lat="43.53573" lon="6.28721">
        <ele>395</ele>
        <time>2026-01-07T14:44:22.000Z</time>
      </trkpt>
      <trkpt lat="43.53578" lon="6.28732">
        <ele>396</ele>
        <time>2026-01-07T14:44:31.000Z</time>
      </trkpt>
      <trkpt lat="43.53582" lon="6.28743">
        <ele>396</ele>
        <time>2026-01-07T14:44:40.000Z</time>
      </trkpt>
      <trkpt lat="43.53586" lon="6.28755">
        <ele>397</ele>
        <time>2026-01-07T14:44:52.000Z</time>
      </trkpt>
      <trkpt lat="43.53591" lon="6.28767">
        <ele>397</ele>
        <time>2026-01-07T14:45:49.000Z</time>
      </trkpt>
      <trkpt lat="43.53597" lon="6.2878">
        <ele>397</ele>
        <time>2026-01-07T14:45:58.000Z</time>
      </trkpt>
      <trkpt lat="43.53603" lon="6.28793">
        <ele>398</ele>
        <time>2026-01-07T14:46:07.000Z</time>
      </trkpt>
      <trkpt lat="43.53609" lon="6.28806">
        <ele>398</ele>
        <time>2026-01-07T14:46:16.000Z</time>
      </trkpt>
      <trkpt lat="43.53614" lon="6.2882">
        <ele>398</ele>
        <time>2026-01-07T14:46:25.000Z</time>
      </trkpt>
      <trkpt lat="43.53619" lon="6.28834">
        <ele>399</ele>
        <time>2026-01-07T14:46:34.000Z</time>
      </trkpt>
      <trkpt lat="43.53626" lon="6.28848">
        <ele>399</ele>
        <time>2026-01-07T14:46:43.000Z</time>
      </trkpt>
      <trkpt lat="43.5363" lon="6.28862">
        <ele>400</ele>
        <time>2026-01-07T14:46:52.000Z</time>
      </trkpt>
      <trkpt lat="43.53633" lon="6.28874">
        <ele>402</ele>
        <time>2026-01-07T14:46:58.000Z</time>
      </trkpt>
      <trkpt lat="43.53636" lon="6.28888">
        <ele>403</ele>
        <time>2026-01-07T14:47:07.000Z</time>
      </trkpt>
      <trkpt lat="43.53645" lon="6.28898">
        <ele>404</ele>
        <time>2026-01-07T14:47:16.000Z</time>
      </trkpt>
      <trkpt lat="43.53652" lon="6.28908">
        <ele>406</ele>
        <time>2026-01-07T14:47:25.000Z</time>
      </trkpt>
      <trkpt lat="43.53659" lon="6.28918">
        <ele>407</ele>
        <time>2026-01-07T14:47:34.000Z</time>
      </trkpt>
      <trkpt lat="43.53668" lon="6.28928">
        <ele>409</ele>
        <time>2026-01-07T14:47:49.000Z</time>
      </trkpt>
      <trkpt lat="43.53678" lon="6.28933">
        <ele>411</ele>
        <time>2026-01-07T14:47:58.000Z</time>
      </trkpt>
      <trkpt lat="43.53687" lon="6.28928">
        <ele>412</ele>
        <time>2026-01-07T14:48:07.000Z</time>
      </trkpt>
      <trkpt lat="43.53696" lon="6.28925">
        <ele>414</ele>
        <time>2026-01-07T14:49:16.000Z</time>
      </trkpt>
      <trkpt lat="43.53705" lon="6.28923">
        <ele>415</ele>
        <time>2026-01-07T14:49:28.000Z</time>
      </trkpt>
      <trkpt lat="43.53715" lon="6.28927">
        <ele>416</ele>
        <time>2026-01-07T14:49:40.000Z</time>
      </trkpt>
      <trkpt lat="43.53723" lon="6.28933">
        <ele>417</ele>
        <time>2026-01-07T14:49:52.000Z</time>
      </trkpt>
      <trkpt lat="43.53732" lon="6.28938">
        <ele>417</ele>
        <time>2026-01-07T14:49:58.000Z</time>
      </trkpt>
      <trkpt lat="43.53738" lon="6.28941">
        <ele>417</ele>
        <time>2026-01-07T14:50:04.000Z</time>
      </trkpt>
      <trkpt lat="43.53732" lon="6.28936">
        <ele>417</ele>
        <time>2026-01-07T14:54:49.000Z</time>
      </trkpt>
      <trkpt lat="43.53723" lon="6.2893">
        <ele>416</ele>
        <time>2026-01-07T14:55:04.000Z</time>
      </trkpt>
      <trkpt lat="43.53714" lon="6.28923">
        <ele>417</ele>
        <time>2026-01-07T14:55:16.000Z</time>
      </trkpt>
      <trkpt lat="43.53705" lon="6.2892">
        <ele>417</ele>
        <time>2026-01-07T14:55:28.000Z</time>
      </trkpt>
      <trkpt lat="43.53697" lon="6.28922">
        <ele>417</ele>
        <time>2026-01-07T14:55:55.000Z</time>
      </trkpt>
      <trkpt lat="43.53696" lon="6.28911">
        <ele>417</ele>
        <time>2026-01-07T14:56:07.000Z</time>
      </trkpt>
      <trkpt lat="43.53699" lon="6.28899">
        <ele>417</ele>
        <time>2026-01-07T14:56:16.000Z</time>
      </trkpt>
      <trkpt lat="43.53704" lon="6.28887">
        <ele>417</ele>
        <time>2026-01-07T14:56:25.000Z</time>
      </trkpt>
      <trkpt lat="43.53708" lon="6.28874">
        <ele>418</ele>
        <time>2026-01-07T14:56:34.000Z</time>
      </trkpt>
      <trkpt lat="43.53712" lon="6.2886">
        <ele>418</ele>
        <time>2026-01-07T14:56:43.000Z</time>
      </trkpt>
      <trkpt lat="43.53718" lon="6.28846">
        <ele>418</ele>
        <time>2026-01-07T14:56:52.000Z</time>
      </trkpt>
      <trkpt lat="43.53722" lon="6.28833">
        <ele>419</ele>
        <time>2026-01-07T14:57:01.000Z</time>
      </trkpt>
      <trkpt lat="43.53726" lon="6.28821">
        <ele>419</ele>
        <time>2026-01-07T14:57:10.000Z</time>
      </trkpt>
      <trkpt lat="43.5373" lon="6.28807">
        <ele>419</ele>
        <time>2026-01-07T14:57:19.000Z</time>
      </trkpt>
      <trkpt lat="43.53734" lon="6.28794">
        <ele>419</ele>
        <time>2026-01-07T14:57:28.000Z</time>
      </trkpt>
      <trkpt lat="43.5374" lon="6.28782">
        <ele>419</ele>
        <time>2026-01-07T14:57:37.000Z</time>
      </trkpt>
      <trkpt lat="43.53749" lon="6.28776">
        <ele>420</ele>
        <time>2026-01-07T14:57:46.000Z</time>
      </trkpt>
      <trkpt lat="43.53759" lon="6.28775">
        <ele>420</ele>
        <time>2026-01-07T14:57:55.000Z</time>
      </trkpt>
      <trkpt lat="43.53769" lon="6.28778">
        <ele>420</ele>
        <time>2026-01-07T14:58:04.000Z</time>
      </trkpt>
      <trkpt lat="43.53779" lon="6.28781">
        <ele>420</ele>
        <time>2026-01-07T14:58:13.000Z</time>
      </trkpt>
      <trkpt lat="43.5379" lon="6.28784">
        <ele>420</ele>
        <time>2026-01-07T14:58:22.000Z</time>
      </trkpt>
      <trkpt lat="43.538" lon="6.28785">
        <ele>420</ele>
        <time>2026-01-07T14:58:31.000Z</time>
      </trkpt>
      <trkpt lat="43.53808" lon="6.2879">
        <ele>420</ele>
        <time>2026-01-07T14:58:40.000Z</time>
      </trkpt>
      <trkpt lat="43.53817" lon="6.28795">
        <ele>421</ele>
        <time>2026-01-07T14:58:46.000Z</time>
      </trkpt>
      <trkpt lat="43.53826" lon="6.28802">
        <ele>421</ele>
        <time>2026-01-07T14:58:55.000Z</time>
      </trkpt>
      <trkpt lat="43.53836" lon="6.28805">
        <ele>421</ele>
        <time>2026-01-07T14:59:04.000Z</time>
      </trkpt>
      <trkpt lat="43.53845" lon="6.28802">
        <ele>422</ele>
        <time>2026-01-07T14:59:13.000Z</time>
      </trkpt>
      <trkpt lat="43.53855" lon="6.28801">
        <ele>422</ele>
        <time>2026-01-07T14:59:22.000Z</time>
      </trkpt>
      <trkpt lat="43.53866" lon="6.28801">
        <ele>423</ele>
        <time>2026-01-07T14:59:31.000Z</time>
      </trkpt>
      <trkpt lat="43.53877" lon="6.28799">
        <ele>424</ele>
        <time>2026-01-07T14:59:40.000Z</time>
      </trkpt>
      <trkpt lat="43.53888" lon="6.28797">
        <ele>424</ele>
        <time>2026-01-07T14:59:49.000Z</time>
      </trkpt>
      <trkpt lat="43.53899" lon="6.28792">
        <ele>425</ele>
        <time>2026-01-07T14:59:58.000Z</time>
      </trkpt>
      <trkpt lat="43.53909" lon="6.28784">
        <ele>425</ele>
        <time>2026-01-07T15:00:10.000Z</time>
      </trkpt>
      <trkpt lat="43.53921" lon="6.28781">
        <ele>426</ele>
        <time>2026-01-07T15:00:22.000Z</time>
      </trkpt>
      <trkpt lat="43.53933" lon="6.28782">
        <ele>426</ele>
        <time>2026-01-07T15:00:28.000Z</time>
      </trkpt>
      <trkpt lat="43.53943" lon="6.2878">
        <ele>426</ele>
        <time>2026-01-07T15:00:37.000Z</time>
      </trkpt>
      <trkpt lat="43.53954" lon="6.28776">
        <ele>426</ele>
        <time>2026-01-07T15:00:46.000Z</time>
      </trkpt>
      <trkpt lat="43.53963" lon="6.28767">
        <ele>426</ele>
        <time>2026-01-07T15:00:58.000Z</time>
      </trkpt>
      <trkpt lat="43.53972" lon="6.28759">
        <ele>426</ele>
        <time>2026-01-07T15:01:07.000Z</time>
      </trkpt>
      <trkpt lat="43.53982" lon="6.28754">
        <ele>427</ele>
        <time>2026-01-07T15:01:16.000Z</time>
      </trkpt>
      <trkpt lat="43.53992" lon="6.28748">
        <ele>427</ele>
        <time>2026-01-07T15:01:25.000Z</time>
      </trkpt>
      <trkpt lat="43.54" lon="6.2874">
        <ele>427</ele>
        <time>2026-01-07T15:01:34.000Z</time>
      </trkpt>
      <trkpt lat="43.54007" lon="6.28732">
        <ele>427</ele>
        <time>2026-01-07T15:01:43.000Z</time>
      </trkpt>
      <trkpt lat="43.54015" lon="6.28725">
        <ele>428</ele>
        <time>2026-01-07T15:01:52.000Z</time>
      </trkpt>
      <trkpt lat="43.54024" lon="6.28719">
        <ele>428</ele>
        <time>2026-01-07T15:02:04.000Z</time>
      </trkpt>
      <trkpt lat="43.54034" lon="6.28719">
        <ele>429</ele>
        <time>2026-01-07T15:02:16.000Z</time>
      </trkpt>
      <trkpt lat="43.54044" lon="6.28723">
        <ele>429</ele>
        <time>2026-01-07T15:02:25.000Z</time>
      </trkpt>
      <trkpt lat="43.54052" lon="6.28732">
        <ele>430</ele>
        <time>2026-01-07T15:02:34.000Z</time>
      </trkpt>
      <trkpt lat="43.54058" lon="6.28743">
        <ele>430</ele>
        <time>2026-01-07T15:02:46.000Z</time>
      </trkpt>
      <trkpt lat="43.54066" lon="6.28753">
        <ele>430</ele>
        <time>2026-01-07T15:02:55.000Z</time>
      </trkpt>
      <trkpt lat="43.54075" lon="6.28758">
        <ele>431</ele>
        <time>2026-01-07T15:03:04.000Z</time>
      </trkpt>
      <trkpt lat="43.54085" lon="6.28763">
        <ele>431</ele>
        <time>2026-01-07T15:03:13.000Z</time>
      </trkpt>
      <trkpt lat="43.54093" lon="6.28771">
        <ele>431</ele>
        <time>2026-01-07T15:03:22.000Z</time>
      </trkpt>
      <trkpt lat="43.54099" lon="6.28781">
        <ele>431</ele>
        <time>2026-01-07T15:03:31.000Z</time>
      </trkpt>
      <trkpt lat="43.54106" lon="6.28791">
        <ele>431</ele>
        <time>2026-01-07T15:03:40.000Z</time>
      </trkpt>
      <trkpt lat="43.54114" lon="6.28798">
        <ele>432</ele>
        <time>2026-01-07T15:03:49.000Z</time>
      </trkpt>
      <trkpt lat="43.54123" lon="6.28805">
        <ele>432</ele>
        <time>2026-01-07T15:03:58.000Z</time>
      </trkpt>
      <trkpt lat="43.54131" lon="6.28812">
        <ele>432</ele>
        <time>2026-01-07T15:04:07.000Z</time>
      </trkpt>
      <trkpt lat="43.54141" lon="6.28819">
        <ele>433</ele>
        <time>2026-01-07T15:04:16.000Z</time>
      </trkpt>
      <trkpt lat="43.54152" lon="6.28825">
        <ele>433</ele>
        <time>2026-01-07T15:04:25.000Z</time>
      </trkpt>
      <trkpt lat="43.54162" lon="6.28832">
        <ele>433</ele>
        <time>2026-01-07T15:04:37.000Z</time>
      </trkpt>
      <trkpt lat="43.54172" lon="6.28837">
        <ele>433</ele>
        <time>2026-01-07T15:04:46.000Z</time>
      </trkpt>
      <trkpt lat="43.54181" lon="6.28844">
        <ele>433</ele>
        <time>2026-01-07T15:04:56.000Z</time>
      </trkpt>
      <trkpt lat="43.54188" lon="6.28851">
        <ele>433</ele>
        <time>2026-01-07T15:05:05.000Z</time>
      </trkpt>
      <trkpt lat="43.54194" lon="6.28863">
        <ele>434</ele>
        <time>2026-01-07T15:05:14.000Z</time>
      </trkpt>
      <trkpt lat="43.54202" lon="6.28873">
        <ele>435</ele>
        <time>2026-01-07T15:05:23.000Z</time>
      </trkpt>
      <trkpt lat="43.5421" lon="6.28882">
        <ele>436</ele>
        <time>2026-01-07T15:05:32.000Z</time>
      </trkpt>
      <trkpt lat="43.54213" lon="6.28895">
        <ele>436</ele>
        <time>2026-01-07T15:05:41.000Z</time>
      </trkpt>
      <trkpt lat="43.54212" lon="6.28909">
        <ele>437</ele>
        <time>2026-01-07T15:05:50.000Z</time>
      </trkpt>
      <trkpt lat="43.54214" lon="6.28924">
        <ele>437</ele>
        <time>2026-01-07T15:05:59.000Z</time>
      </trkpt>
      <trkpt lat="43.54218" lon="6.28937">
        <ele>437</ele>
        <time>2026-01-07T15:06:08.000Z</time>
      </trkpt>
      <trkpt lat="43.54224" lon="6.2895">
        <ele>437</ele>
        <time>2026-01-07T15:06:17.000Z</time>
      </trkpt>
      <trkpt lat="43.54231" lon="6.2896">
        <ele>438</ele>
        <time>2026-01-07T15:06:26.000Z</time>
      </trkpt>
      <trkpt lat="43.54235" lon="6.28974">
        <ele>438</ele>
        <time>2026-01-07T15:06:35.000Z</time>
      </trkpt>
      <trkpt lat="43.5424" lon="6.28988">
        <ele>439</ele>
        <time>2026-01-07T15:06:47.000Z</time>
      </trkpt>
      <trkpt lat="43.54247" lon="6.29">
        <ele>439</ele>
        <time>2026-01-07T15:06:56.000Z</time>
      </trkpt>
      <trkpt lat="43.54254" lon="6.29008">
        <ele>440</ele>
        <time>2026-01-07T15:07:05.000Z</time>
      </trkpt>
      <trkpt lat="43.54263" lon="6.29013">
        <ele>441</ele>
        <time>2026-01-07T15:07:14.000Z</time>
      </trkpt>
      <trkpt lat="43.54273" lon="6.29017">
        <ele>441</ele>
        <time>2026-01-07T15:07:23.000Z</time>
      </trkpt>
      <trkpt lat="43.54282" lon="6.29023">
        <ele>442</ele>
        <time>2026-01-07T15:07:32.000Z</time>
      </trkpt>
      <trkpt lat="43.5429" lon="6.29028">
        <ele>443</ele>
        <time>2026-01-07T15:07:41.000Z</time>
      </trkpt>
      <trkpt lat="43.543" lon="6.2903">
        <ele>444</ele>
        <time>2026-01-07T15:07:50.000Z</time>
      </trkpt>
      <trkpt lat="43.5431" lon="6.29032">
        <ele>445</ele>
        <time>2026-01-07T15:08:02.000Z</time>
      </trkpt>
      <trkpt lat="43.5432" lon="6.29038">
        <ele>446</ele>
        <time>2026-01-07T15:08:11.000Z</time>
      </trkpt>
      <trkpt lat="43.54327" lon="6.29047">
        <ele>447</ele>
        <time>2026-01-07T15:08:20.000Z</time>
      </trkpt>
      <trkpt lat="43.54333" lon="6.29057">
        <ele>447</ele>
        <time>2026-01-07T15:08:29.000Z</time>
      </trkpt>
      <trkpt lat="43.54343" lon="6.29063">
        <ele>448</ele>
        <time>2026-01-07T15:08:41.000Z</time>
      </trkpt>
      <trkpt lat="43.54353" lon="6.29066">
        <ele>448</ele>
        <time>2026-01-07T15:08:50.000Z</time>
      </trkpt>
      <trkpt lat="43.5436" lon="6.29074">
        <ele>449</ele>
        <time>2026-01-07T15:08:59.000Z</time>
      </trkpt>
      <trkpt lat="43.54363" lon="6.29087">
        <ele>449</ele>
        <time>2026-01-07T15:09:08.000Z</time>
      </trkpt>
      <trkpt lat="43.54368" lon="6.29101">
        <ele>450</ele>
        <time>2026-01-07T15:09:17.000Z</time>
      </trkpt>
      <trkpt lat="43.54371" lon="6.29115">
        <ele>451</ele>
        <time>2026-01-07T15:09:26.000Z</time>
      </trkpt>
      <trkpt lat="43.54372" lon="6.2913">
        <ele>452</ele>
        <time>2026-01-07T15:09:35.000Z</time>
      </trkpt>
      <trkpt lat="43.54375" lon="6.29142">
        <ele>453</ele>
        <time>2026-01-07T15:09:44.000Z</time>
      </trkpt>
      <trkpt lat="43.54382" lon="6.29153">
        <ele>454</ele>
        <time>2026-01-07T15:09:53.000Z</time>
      </trkpt>
      <trkpt lat="43.54392" lon="6.29159">
        <ele>455</ele>
        <time>2026-01-07T15:10:05.000Z</time>
      </trkpt>
      <trkpt lat="43.54402" lon="6.29164">
        <ele>455</ele>
        <time>2026-01-07T15:10:14.000Z</time>
      </trkpt>
      <trkpt lat="43.54412" lon="6.29169">
        <ele>456</ele>
        <time>2026-01-07T15:10:23.000Z</time>
      </trkpt>
      <trkpt lat="43.5442" lon="6.29177">
        <ele>457</ele>
        <time>2026-01-07T15:10:32.000Z</time>
      </trkpt>
      <trkpt lat="43.54429" lon="6.29181">
        <ele>457</ele>
        <time>2026-01-07T15:10:41.000Z</time>
      </trkpt>
      <trkpt lat="43.54439" lon="6.2918">
        <ele>457</ele>
        <time>2026-01-07T15:10:53.000Z</time>
      </trkpt>
      <trkpt lat="43.54449" lon="6.29182">
        <ele>457</ele>
        <time>2026-01-07T15:11:02.000Z</time>
      </trkpt>
      <trkpt lat="43.54459" lon="6.29187">
        <ele>457</ele>
        <time>2026-01-07T15:11:11.000Z</time>
      </trkpt>
      <trkpt lat="43.54468" lon="6.29195">
        <ele>457</ele>
        <time>2026-01-07T15:11:20.000Z</time>
      </trkpt>
      <trkpt lat="43.54477" lon="6.292">
        <ele>457</ele>
        <time>2026-01-07T15:11:29.000Z</time>
      </trkpt>
      <trkpt lat="43.54488" lon="6.29201">
        <ele>457</ele>
        <time>2026-01-07T15:11:38.000Z</time>
      </trkpt>
      <trkpt lat="43.54497" lon="6.29202">
        <ele>457</ele>
        <time>2026-01-07T15:11:47.000Z</time>
      </trkpt>
      <trkpt lat="43.54506" lon="6.29206">
        <ele>457</ele>
        <time>2026-01-07T15:11:56.000Z</time>
      </trkpt>
      <trkpt lat="43.54516" lon="6.29205">
        <ele>458</ele>
        <time>2026-01-07T15:12:05.000Z</time>
      </trkpt>
      <trkpt lat="43.54525" lon="6.29197">
        <ele>458</ele>
        <time>2026-01-07T15:12:14.000Z</time>
      </trkpt>
      <trkpt lat="43.54534" lon="6.29189">
        <ele>459</ele>
        <time>2026-01-07T15:12:23.000Z</time>
      </trkpt>
      <trkpt lat="43.54543" lon="6.29184">
        <ele>459</ele>
        <time>2026-01-07T15:12:32.000Z</time>
      </trkpt>
      <trkpt lat="43.54551" lon="6.29181">
        <ele>458</ele>
        <time>2026-01-07T15:12:41.000Z</time>
      </trkpt>
      <trkpt lat="43.54562" lon="6.29179">
        <ele>458</ele>
        <time>2026-01-07T15:12:53.000Z</time>
      </trkpt>
      <trkpt lat="43.54571" lon="6.29177">
        <ele>457</ele>
        <time>2026-01-07T15:13:35.000Z</time>
      </trkpt>
      <trkpt lat="43.54581" lon="6.2918">
        <ele>457</ele>
        <time>2026-01-07T15:13:50.000Z</time>
      </trkpt>
      <trkpt lat="43.54592" lon="6.29181">
        <ele>456</ele>
        <time>2026-01-07T15:14:02.000Z</time>
      </trkpt>
      <trkpt lat="43.54602" lon="6.29186">
        <ele>455</ele>
        <time>2026-01-07T15:14:14.000Z</time>
      </trkpt>
      <trkpt lat="43.54612" lon="6.29193">
        <ele>454</ele>
        <time>2026-01-07T15:14:26.000Z</time>
      </trkpt>
      <trkpt lat="43.54621" lon="6.29199">
        <ele>453</ele>
        <time>2026-01-07T15:14:35.000Z</time>
      </trkpt>
      <trkpt lat="43.5463" lon="6.29205">
        <ele>453</ele>
        <time>2026-01-07T15:14:44.000Z</time>
      </trkpt>
      <trkpt lat="43.5464" lon="6.29211">
        <ele>452</ele>
        <time>2026-01-07T15:14:53.000Z</time>
      </trkpt>
      <trkpt lat="43.54649" lon="6.29216">
        <ele>451</ele>
        <time>2026-01-07T15:15:02.000Z</time>
      </trkpt>
      <trkpt lat="43.54658" lon="6.29226">
        <ele>451</ele>
        <time>2026-01-07T15:15:11.000Z</time>
      </trkpt>
      <trkpt lat="43.54667" lon="6.29231">
        <ele>450</ele>
        <time>2026-01-07T15:15:20.000Z</time>
      </trkpt>
      <trkpt lat="43.54678" lon="6.29232">
        <ele>449</ele>
        <time>2026-01-07T15:15:29.000Z</time>
      </trkpt>
      <trkpt lat="43.54688" lon="6.29235">
        <ele>449</ele>
        <time>2026-01-07T15:15:38.000Z</time>
      </trkpt>
      <trkpt lat="43.54699" lon="6.29235">
        <ele>448</ele>
        <time>2026-01-07T15:15:47.000Z</time>
      </trkpt>
      <trkpt lat="43.54708" lon="6.29229">
        <ele>448</ele>
        <time>2026-01-07T15:15:56.000Z</time>
      </trkpt>
      <trkpt lat="43.54717" lon="6.29224">
        <ele>448</ele>
        <time>2026-01-07T15:16:05.000Z</time>
      </trkpt>
      <trkpt lat="43.54728" lon="6.29227">
        <ele>448</ele>
        <time>2026-01-07T15:16:14.000Z</time>
      </trkpt>
      <trkpt lat="43.54733" lon="6.29239">
        <ele>448</ele>
        <time>2026-01-07T15:16:23.000Z</time>
      </trkpt>
      <trkpt lat="43.54736" lon="6.29253">
        <ele>449</ele>
        <time>2026-01-07T15:16:32.000Z</time>
      </trkpt>
      <trkpt lat="43.54738" lon="6.29267">
        <ele>449</ele>
        <time>2026-01-07T15:16:41.000Z</time>
      </trkpt>
      <trkpt lat="43.54735" lon="6.29279">
        <ele>449</ele>
        <time>2026-01-07T15:16:50.000Z</time>
      </trkpt>
      <trkpt lat="43.54729" lon="6.29291">
        <ele>449</ele>
        <time>2026-01-07T15:16:59.000Z</time>
      </trkpt>
      <trkpt lat="43.54723" lon="6.29303">
        <ele>449</ele>
        <time>2026-01-07T15:17:08.000Z</time>
      </trkpt>
      <trkpt lat="43.54722" lon="6.29316">
        <ele>450</ele>
        <time>2026-01-07T15:17:14.000Z</time>
      </trkpt>
      <trkpt lat="43.54722" lon="6.2933">
        <ele>450</ele>
        <time>2026-01-07T15:17:23.000Z</time>
      </trkpt>
      <trkpt lat="43.54719" lon="6.29346">
        <ele>450</ele>
        <time>2026-01-07T15:17:32.000Z</time>
      </trkpt>
      <trkpt lat="43.54714" lon="6.29358">
        <ele>449</ele>
        <time>2026-01-07T15:17:41.000Z</time>
      </trkpt>
      <trkpt lat="43.54708" lon="6.29369">
        <ele>448</ele>
        <time>2026-01-07T15:17:50.000Z</time>
      </trkpt>
      <trkpt lat="43.54701" lon="6.2938">
        <ele>447</ele>
        <time>2026-01-07T15:17:59.000Z</time>
      </trkpt>
      <trkpt lat="43.54694" lon="6.29392">
        <ele>446</ele>
        <time>2026-01-07T15:18:08.000Z</time>
      </trkpt>
      <trkpt lat="43.54687" lon="6.29404">
        <ele>446</ele>
        <time>2026-01-07T15:18:17.000Z</time>
      </trkpt>
      <trkpt lat="43.54682" lon="6.29415">
        <ele>446</ele>
        <time>2026-01-07T15:18:26.000Z</time>
      </trkpt>
      <trkpt lat="43.54676" lon="6.29427">
        <ele>445</ele>
        <time>2026-01-07T15:18:35.000Z</time>
      </trkpt>
      <trkpt lat="43.54672" lon="6.29439">
        <ele>445</ele>
        <time>2026-01-07T15:18:41.000Z</time>
      </trkpt>
      <trkpt lat="43.54665" lon="6.29449">
        <ele>444</ele>
        <time>2026-01-07T15:18:50.000Z</time>
      </trkpt>
      <trkpt lat="43.54658" lon="6.29458">
        <ele>444</ele>
        <time>2026-01-07T15:18:56.000Z</time>
      </trkpt>
      <trkpt lat="43.54652" lon="6.29468">
        <ele>442</ele>
        <time>2026-01-07T15:19:05.000Z</time>
      </trkpt>
      <trkpt lat="43.54642" lon="6.29475">
        <ele>442</ele>
        <time>2026-01-07T15:19:14.000Z</time>
      </trkpt>
      <trkpt lat="43.54636" lon="6.29485">
        <ele>438</ele>
        <time>2026-01-07T15:19:23.000Z</time>
      </trkpt>
    </trkseg>
  </trk>
</gpx>